<?xml version="1.0" encoding="UTF-8" standalone="no" ?>
<gpx xmlns="http://www.topografix.com/GPX/1/1" xmlns:xsi="http://www.w3.org/2001/XMLSchema-instance" xsi:schemaLocation="http://www.topografix.com/GPX/1/1 http://www.topografix.com/GPX/1/1/gpx.xsd" version="1.1" creator="VisuGPX - https://www.visugpx.com">
  <metadata>
    <name>Randonnée du 15/02/2022 à 09:11</name>
  </metadata>
  <trk>
    <name><![CDATA[Randonnée du 15/02/2022 à 09:11]]></name>
    <trkseg>
      <trkpt lat="48.70588" lon="2.04006">
        <ele>68</ele>
        <time>2022-02-15T09:11:30+01:00</time>
      </trkpt>
      <trkpt lat="48.70583" lon="2.03972">
        <ele>74</ele>
        <time>2022-02-15T09:33:41+01:00</time>
      </trkpt>
      <trkpt lat="48.70603" lon="2.03954">
        <ele>75</ele>
        <time>2022-02-15T09:34:04+01:00</time>
      </trkpt>
      <trkpt lat="48.70626" lon="2.03946">
        <ele>72</ele>
        <time>2022-02-15T09:34:25+01:00</time>
      </trkpt>
      <trkpt lat="48.70648" lon="2.03937">
        <ele>63</ele>
        <time>2022-02-15T09:34:49+01:00</time>
      </trkpt>
      <trkpt lat="48.70661" lon="2.03907">
        <ele>65</ele>
        <time>2022-02-15T09:35:09+01:00</time>
      </trkpt>
      <trkpt lat="48.70674" lon="2.03875">
        <ele>66</ele>
        <time>2022-02-15T09:35:32+01:00</time>
      </trkpt>
      <trkpt lat="48.70683" lon="2.0384">
        <ele>67</ele>
        <time>2022-02-15T09:35:38+01:00</time>
      </trkpt>
      <trkpt lat="48.70701" lon="2.03809">
        <ele>71</ele>
        <time>2022-02-15T09:35:43+01:00</time>
      </trkpt>
      <trkpt lat="48.70683" lon="2.03833">
        <ele>75</ele>
        <time>2022-02-15T09:35:50+01:00</time>
      </trkpt>
      <trkpt lat="48.70671" lon="2.03862">
        <ele>79</ele>
        <time>2022-02-15T09:36:11+01:00</time>
      </trkpt>
      <trkpt lat="48.70675" lon="2.03827">
        <ele>79</ele>
        <time>2022-02-15T09:36:58+01:00</time>
      </trkpt>
      <trkpt lat="48.70673" lon="2.03862">
        <ele>80</ele>
        <time>2022-02-15T09:37:34+01:00</time>
      </trkpt>
      <trkpt lat="48.7065" lon="2.03856">
        <ele>71</ele>
        <time>2022-02-15T09:38:03+01:00</time>
      </trkpt>
      <trkpt lat="48.70629" lon="2.03844">
        <ele>73</ele>
        <time>2022-02-15T09:38:14+01:00</time>
      </trkpt>
      <trkpt lat="48.70631" lon="2.03805">
        <ele>70</ele>
        <time>2022-02-15T09:38:41+01:00</time>
      </trkpt>
      <trkpt lat="48.7065" lon="2.03783">
        <ele>82</ele>
        <time>2022-02-15T09:39:02+01:00</time>
      </trkpt>
      <trkpt lat="48.70672" lon="2.03778">
        <ele>82</ele>
        <time>2022-02-15T09:39:23+01:00</time>
      </trkpt>
      <trkpt lat="48.70694" lon="2.03767">
        <ele>80</ele>
        <time>2022-02-15T09:39:41+01:00</time>
      </trkpt>
      <trkpt lat="48.70717" lon="2.03756">
        <ele>81</ele>
        <time>2022-02-15T09:39:56+01:00</time>
      </trkpt>
      <trkpt lat="48.70729" lon="2.03727">
        <ele>89</ele>
        <time>2022-02-15T09:40:11+01:00</time>
      </trkpt>
      <trkpt lat="48.70752" lon="2.03728">
        <ele>80</ele>
        <time>2022-02-15T09:40:41+01:00</time>
      </trkpt>
      <trkpt lat="48.70775" lon="2.03728">
        <ele>76</ele>
        <time>2022-02-15T09:40:57+01:00</time>
      </trkpt>
      <trkpt lat="48.70797" lon="2.03724">
        <ele>71</ele>
        <time>2022-02-15T09:41:16+01:00</time>
      </trkpt>
      <trkpt lat="48.7082" lon="2.03714">
        <ele>69</ele>
        <time>2022-02-15T09:41:34+01:00</time>
      </trkpt>
      <trkpt lat="48.70842" lon="2.03702">
        <ele>71</ele>
        <time>2022-02-15T09:41:51+01:00</time>
      </trkpt>
      <trkpt lat="48.70842" lon="2.03668">
        <ele>72</ele>
        <time>2022-02-15T09:42:21+01:00</time>
      </trkpt>
      <trkpt lat="48.70827" lon="2.03641">
        <ele>72</ele>
        <time>2022-02-15T09:42:37+01:00</time>
      </trkpt>
      <trkpt lat="48.70813" lon="2.03613">
        <ele>76</ele>
        <time>2022-02-15T09:43:00+01:00</time>
      </trkpt>
      <trkpt lat="48.70809" lon="2.03576">
        <ele>80</ele>
        <time>2022-02-15T09:43:19+01:00</time>
      </trkpt>
      <trkpt lat="48.708" lon="2.03544">
        <ele>80</ele>
        <time>2022-02-15T09:43:34+01:00</time>
      </trkpt>
      <trkpt lat="48.70786" lon="2.03516">
        <ele>78</ele>
        <time>2022-02-15T09:43:51+01:00</time>
      </trkpt>
      <trkpt lat="48.70771" lon="2.0349">
        <ele>78</ele>
        <time>2022-02-15T09:44:10+01:00</time>
      </trkpt>
      <trkpt lat="48.7076" lon="2.0346">
        <ele>79</ele>
        <time>2022-02-15T09:44:28+01:00</time>
      </trkpt>
      <trkpt lat="48.70747" lon="2.03431">
        <ele>78</ele>
        <time>2022-02-15T09:44:46+01:00</time>
      </trkpt>
      <trkpt lat="48.70732" lon="2.03403">
        <ele>78</ele>
        <time>2022-02-15T09:45:04+01:00</time>
      </trkpt>
      <trkpt lat="48.70719" lon="2.03376">
        <ele>77</ele>
        <time>2022-02-15T09:45:22+01:00</time>
      </trkpt>
      <trkpt lat="48.70729" lon="2.03346">
        <ele>80</ele>
        <time>2022-02-15T09:45:44+01:00</time>
      </trkpt>
      <trkpt lat="48.70747" lon="2.03325">
        <ele>82</ele>
        <time>2022-02-15T09:46:00+01:00</time>
      </trkpt>
      <trkpt lat="48.70768" lon="2.03311">
        <ele>88</ele>
        <time>2022-02-15T09:46:18+01:00</time>
      </trkpt>
      <trkpt lat="48.70789" lon="2.03296">
        <ele>93</ele>
        <time>2022-02-15T09:46:36+01:00</time>
      </trkpt>
      <trkpt lat="48.70811" lon="2.03285">
        <ele>94</ele>
        <time>2022-02-15T09:46:55+01:00</time>
      </trkpt>
      <trkpt lat="48.70802" lon="2.03253">
        <ele>85</ele>
        <time>2022-02-15T09:47:29+01:00</time>
      </trkpt>
      <trkpt lat="48.70787" lon="2.03219">
        <ele>86</ele>
        <time>2022-02-15T09:47:53+01:00</time>
      </trkpt>
      <trkpt lat="48.70774" lon="2.03191">
        <ele>89</ele>
        <time>2022-02-15T09:48:17+01:00</time>
      </trkpt>
      <trkpt lat="48.70758" lon="2.03164">
        <ele>88</ele>
        <time>2022-02-15T09:48:42+01:00</time>
      </trkpt>
      <trkpt lat="48.70747" lon="2.03126">
        <ele>90</ele>
        <time>2022-02-15T09:49:03+01:00</time>
      </trkpt>
      <trkpt lat="48.70757" lon="2.03095">
        <ele>97</ele>
        <time>2022-02-15T09:49:53+01:00</time>
      </trkpt>
      <trkpt lat="48.7077" lon="2.03067">
        <ele>104</ele>
        <time>2022-02-15T09:51:14+01:00</time>
      </trkpt>
      <trkpt lat="48.70774" lon="2.03025">
        <ele>117</ele>
        <time>2022-02-15T09:51:39+01:00</time>
      </trkpt>
      <trkpt lat="48.70781" lon="2.02992">
        <ele>127</ele>
        <time>2022-02-15T09:51:58+01:00</time>
      </trkpt>
      <trkpt lat="48.70786" lon="2.02956">
        <ele>134</ele>
        <time>2022-02-15T09:52:18+01:00</time>
      </trkpt>
      <trkpt lat="48.70776" lon="2.02925">
        <ele>142</ele>
        <time>2022-02-15T09:52:39+01:00</time>
      </trkpt>
      <trkpt lat="48.70764" lon="2.02896">
        <ele>152</ele>
        <time>2022-02-15T09:53:05+01:00</time>
      </trkpt>
      <trkpt lat="48.70756" lon="2.02863">
        <ele>151</ele>
        <time>2022-02-15T09:53:24+01:00</time>
      </trkpt>
      <trkpt lat="48.70745" lon="2.02825">
        <ele>148</ele>
        <time>2022-02-15T09:53:50+01:00</time>
      </trkpt>
      <trkpt lat="48.7074" lon="2.02791">
        <ele>146</ele>
        <time>2022-02-15T09:54:09+01:00</time>
      </trkpt>
      <trkpt lat="48.70732" lon="2.02758">
        <ele>147</ele>
        <time>2022-02-15T09:54:25+01:00</time>
      </trkpt>
      <trkpt lat="48.70723" lon="2.02722">
        <ele>146</ele>
        <time>2022-02-15T09:54:50+01:00</time>
      </trkpt>
      <trkpt lat="48.70721" lon="2.0268">
        <ele>153</ele>
        <time>2022-02-15T09:55:15+01:00</time>
      </trkpt>
      <trkpt lat="48.7072" lon="2.02644">
        <ele>158</ele>
        <time>2022-02-15T09:55:39+01:00</time>
      </trkpt>
      <trkpt lat="48.70718" lon="2.0261">
        <ele>161</ele>
        <time>2022-02-15T09:55:58+01:00</time>
      </trkpt>
      <trkpt lat="48.70712" lon="2.02577">
        <ele>161</ele>
        <time>2022-02-15T09:56:25+01:00</time>
      </trkpt>
      <trkpt lat="48.70704" lon="2.02542">
        <ele>163</ele>
        <time>2022-02-15T09:56:44+01:00</time>
      </trkpt>
      <trkpt lat="48.70695" lon="2.02511">
        <ele>163</ele>
        <time>2022-02-15T09:57:00+01:00</time>
      </trkpt>
      <trkpt lat="48.70688" lon="2.02478">
        <ele>163</ele>
        <time>2022-02-15T09:57:18+01:00</time>
      </trkpt>
      <trkpt lat="48.70687" lon="2.02444">
        <ele>162</ele>
        <time>2022-02-15T09:57:34+01:00</time>
      </trkpt>
      <trkpt lat="48.70688" lon="2.02408">
        <ele>161</ele>
        <time>2022-02-15T09:57:52+01:00</time>
      </trkpt>
      <trkpt lat="48.70688" lon="2.02373">
        <ele>160</ele>
        <time>2022-02-15T09:58:09+01:00</time>
      </trkpt>
      <trkpt lat="48.70695" lon="2.0234">
        <ele>157</ele>
        <time>2022-02-15T09:58:26+01:00</time>
      </trkpt>
      <trkpt lat="48.70698" lon="2.02305">
        <ele>156</ele>
        <time>2022-02-15T09:58:44+01:00</time>
      </trkpt>
      <trkpt lat="48.707" lon="2.02269">
        <ele>158</ele>
        <time>2022-02-15T09:59:02+01:00</time>
      </trkpt>
      <trkpt lat="48.70709" lon="2.02235">
        <ele>158</ele>
        <time>2022-02-15T09:59:21+01:00</time>
      </trkpt>
      <trkpt lat="48.70711" lon="2.02201">
        <ele>159</ele>
        <time>2022-02-15T09:59:37+01:00</time>
      </trkpt>
      <trkpt lat="48.70709" lon="2.02165">
        <ele>158</ele>
        <time>2022-02-15T09:59:55+01:00</time>
      </trkpt>
      <trkpt lat="48.70708" lon="2.02131">
        <ele>158</ele>
        <time>2022-02-15T10:00:12+01:00</time>
      </trkpt>
      <trkpt lat="48.70708" lon="2.02097">
        <ele>155</ele>
        <time>2022-02-15T10:00:29+01:00</time>
      </trkpt>
      <trkpt lat="48.70705" lon="2.02062">
        <ele>154</ele>
        <time>2022-02-15T10:00:45+01:00</time>
      </trkpt>
      <trkpt lat="48.70703" lon="2.02027">
        <ele>157</ele>
        <time>2022-02-15T10:01:03+01:00</time>
      </trkpt>
      <trkpt lat="48.70704" lon="2.01991">
        <ele>161</ele>
        <time>2022-02-15T10:01:23+01:00</time>
      </trkpt>
      <trkpt lat="48.70705" lon="2.01957">
        <ele>161</ele>
        <time>2022-02-15T10:01:40+01:00</time>
      </trkpt>
      <trkpt lat="48.70708" lon="2.01924">
        <ele>163</ele>
        <time>2022-02-15T10:01:57+01:00</time>
      </trkpt>
      <trkpt lat="48.70714" lon="2.01889">
        <ele>162</ele>
        <time>2022-02-15T10:02:15+01:00</time>
      </trkpt>
      <trkpt lat="48.70722" lon="2.01856">
        <ele>161</ele>
        <time>2022-02-15T10:02:33+01:00</time>
      </trkpt>
      <trkpt lat="48.70729" lon="2.01821">
        <ele>160</ele>
        <time>2022-02-15T10:02:53+01:00</time>
      </trkpt>
      <trkpt lat="48.70736" lon="2.01787">
        <ele>163</ele>
        <time>2022-02-15T10:03:13+01:00</time>
      </trkpt>
      <trkpt lat="48.70741" lon="2.01753">
        <ele>163</ele>
        <time>2022-02-15T10:03:40+01:00</time>
      </trkpt>
      <trkpt lat="48.7075" lon="2.01721">
        <ele>164</ele>
        <time>2022-02-15T10:03:58+01:00</time>
      </trkpt>
      <trkpt lat="48.70757" lon="2.01689">
        <ele>164</ele>
        <time>2022-02-15T10:04:14+01:00</time>
      </trkpt>
      <trkpt lat="48.70763" lon="2.01654">
        <ele>164</ele>
        <time>2022-02-15T10:04:32+01:00</time>
      </trkpt>
      <trkpt lat="48.70773" lon="2.01622">
        <ele>167</ele>
        <time>2022-02-15T10:04:48+01:00</time>
      </trkpt>
      <trkpt lat="48.70785" lon="2.0159">
        <ele>165</ele>
        <time>2022-02-15T10:05:12+01:00</time>
      </trkpt>
      <trkpt lat="48.70793" lon="2.01557">
        <ele>164</ele>
        <time>2022-02-15T10:05:30+01:00</time>
      </trkpt>
      <trkpt lat="48.70798" lon="2.01523">
        <ele>166</ele>
        <time>2022-02-15T10:06:06+01:00</time>
      </trkpt>
      <trkpt lat="48.70804" lon="2.0149">
        <ele>171</ele>
        <time>2022-02-15T10:06:22+01:00</time>
      </trkpt>
      <trkpt lat="48.70815" lon="2.0146">
        <ele>172</ele>
        <time>2022-02-15T10:06:41+01:00</time>
      </trkpt>
      <trkpt lat="48.70822" lon="2.01413">
        <ele>168</ele>
        <time>2022-02-15T10:07:04+01:00</time>
      </trkpt>
      <trkpt lat="48.70825" lon="2.01377">
        <ele>171</ele>
        <time>2022-02-15T10:07:16+01:00</time>
      </trkpt>
      <trkpt lat="48.7083" lon="2.01343">
        <ele>177</ele>
        <time>2022-02-15T10:07:32+01:00</time>
      </trkpt>
      <trkpt lat="48.70839" lon="2.01311">
        <ele>172</ele>
        <time>2022-02-15T10:07:47+01:00</time>
      </trkpt>
      <trkpt lat="48.70848" lon="2.01279">
        <ele>167</ele>
        <time>2022-02-15T10:08:04+01:00</time>
      </trkpt>
      <trkpt lat="48.70857" lon="2.01246">
        <ele>164</ele>
        <time>2022-02-15T10:08:21+01:00</time>
      </trkpt>
      <trkpt lat="48.70867" lon="2.01214">
        <ele>165</ele>
        <time>2022-02-15T10:08:37+01:00</time>
      </trkpt>
      <trkpt lat="48.70874" lon="2.01181">
        <ele>166</ele>
        <time>2022-02-15T10:08:54+01:00</time>
      </trkpt>
      <trkpt lat="48.7088" lon="2.01146">
        <ele>163</ele>
        <time>2022-02-15T10:09:12+01:00</time>
      </trkpt>
      <trkpt lat="48.70891" lon="2.01113">
        <ele>165</ele>
        <time>2022-02-15T10:09:30+01:00</time>
      </trkpt>
      <trkpt lat="48.709" lon="2.0108">
        <ele>167</ele>
        <time>2022-02-15T10:09:44+01:00</time>
      </trkpt>
      <trkpt lat="48.70908" lon="2.01047">
        <ele>168</ele>
        <time>2022-02-15T10:10:02+01:00</time>
      </trkpt>
      <trkpt lat="48.70918" lon="2.01015">
        <ele>171</ele>
        <time>2022-02-15T10:10:20+01:00</time>
      </trkpt>
      <trkpt lat="48.70924" lon="2.00982">
        <ele>171</ele>
        <time>2022-02-15T10:10:35+01:00</time>
      </trkpt>
      <trkpt lat="48.70933" lon="2.0095">
        <ele>173</ele>
        <time>2022-02-15T10:10:51+01:00</time>
      </trkpt>
      <trkpt lat="48.7094" lon="2.00916">
        <ele>171</ele>
        <time>2022-02-15T10:11:08+01:00</time>
      </trkpt>
      <trkpt lat="48.70951" lon="2.00884">
        <ele>171</ele>
        <time>2022-02-15T10:11:24+01:00</time>
      </trkpt>
      <trkpt lat="48.70957" lon="2.00851">
        <ele>175</ele>
        <time>2022-02-15T10:11:40+01:00</time>
      </trkpt>
      <trkpt lat="48.70967" lon="2.0082">
        <ele>172</ele>
        <time>2022-02-15T10:11:57+01:00</time>
      </trkpt>
      <trkpt lat="48.70978" lon="2.0079">
        <ele>170</ele>
        <time>2022-02-15T10:12:12+01:00</time>
      </trkpt>
      <trkpt lat="48.70989" lon="2.00759">
        <ele>170</ele>
        <time>2022-02-15T10:12:29+01:00</time>
      </trkpt>
      <trkpt lat="48.71007" lon="2.00731">
        <ele>167</ele>
        <time>2022-02-15T10:13:15+01:00</time>
      </trkpt>
      <trkpt lat="48.7098" lon="2.00719">
        <ele>166</ele>
        <time>2022-02-15T10:16:39+01:00</time>
      </trkpt>
      <trkpt lat="48.7096" lon="2.007">
        <ele>163</ele>
        <time>2022-02-15T10:16:58+01:00</time>
      </trkpt>
      <trkpt lat="48.70943" lon="2.00675">
        <ele>165</ele>
        <time>2022-02-15T10:17:17+01:00</time>
      </trkpt>
      <trkpt lat="48.70929" lon="2.00647">
        <ele>165</ele>
        <time>2022-02-15T10:17:33+01:00</time>
      </trkpt>
      <trkpt lat="48.7092" lon="2.00613">
        <ele>164</ele>
        <time>2022-02-15T10:17:52+01:00</time>
      </trkpt>
      <trkpt lat="48.70908" lon="2.00584">
        <ele>164</ele>
        <time>2022-02-15T10:18:10+01:00</time>
      </trkpt>
      <trkpt lat="48.70899" lon="2.00551">
        <ele>163</ele>
        <time>2022-02-15T10:18:30+01:00</time>
      </trkpt>
      <trkpt lat="48.7089" lon="2.00519">
        <ele>164</ele>
        <time>2022-02-15T10:18:50+01:00</time>
      </trkpt>
      <trkpt lat="48.70883" lon="2.00486">
        <ele>164</ele>
        <time>2022-02-15T10:19:07+01:00</time>
      </trkpt>
      <trkpt lat="48.70882" lon="2.00452">
        <ele>165</ele>
        <time>2022-02-15T10:19:24+01:00</time>
      </trkpt>
      <trkpt lat="48.70881" lon="2.00416">
        <ele>164</ele>
        <time>2022-02-15T10:19:41+01:00</time>
      </trkpt>
      <trkpt lat="48.70885" lon="2.00375">
        <ele>160</ele>
        <time>2022-02-15T10:20:05+01:00</time>
      </trkpt>
      <trkpt lat="48.70894" lon="2.00339">
        <ele>157</ele>
        <time>2022-02-15T10:20:24+01:00</time>
      </trkpt>
      <trkpt lat="48.70906" lon="2.00308">
        <ele>157</ele>
        <time>2022-02-15T10:20:42+01:00</time>
      </trkpt>
      <trkpt lat="48.70918" lon="2.00273">
        <ele>160</ele>
        <time>2022-02-15T10:21:04+01:00</time>
      </trkpt>
      <trkpt lat="48.70931" lon="2.00239">
        <ele>164</ele>
        <time>2022-02-15T10:21:26+01:00</time>
      </trkpt>
      <trkpt lat="48.70943" lon="2.00204">
        <ele>165</ele>
        <time>2022-02-15T10:21:46+01:00</time>
      </trkpt>
      <trkpt lat="48.70933" lon="2.00173">
        <ele>170</ele>
        <time>2022-02-15T10:22:22+01:00</time>
      </trkpt>
      <trkpt lat="48.70909" lon="2.00162">
        <ele>170</ele>
        <time>2022-02-15T10:22:51+01:00</time>
      </trkpt>
      <trkpt lat="48.70884" lon="2.00152">
        <ele>172</ele>
        <time>2022-02-15T10:23:28+01:00</time>
      </trkpt>
      <trkpt lat="48.70877" lon="2.00119">
        <ele>168</ele>
        <time>2022-02-15T10:23:48+01:00</time>
      </trkpt>
      <trkpt lat="48.70889" lon="2.00078">
        <ele>164</ele>
        <time>2022-02-15T10:24:13+01:00</time>
      </trkpt>
      <trkpt lat="48.70904" lon="2.00051">
        <ele>164</ele>
        <time>2022-02-15T10:24:32+01:00</time>
      </trkpt>
      <trkpt lat="48.70919" lon="2.00025">
        <ele>166</ele>
        <time>2022-02-15T10:24:48+01:00</time>
      </trkpt>
      <trkpt lat="48.70939" lon="1.9999">
        <ele>165</ele>
        <time>2022-02-15T10:25:15+01:00</time>
      </trkpt>
      <trkpt lat="48.70952" lon="1.99963">
        <ele>165</ele>
        <time>2022-02-15T10:25:36+01:00</time>
      </trkpt>
      <trkpt lat="48.7097" lon="1.9994">
        <ele>162</ele>
        <time>2022-02-15T10:25:53+01:00</time>
      </trkpt>
      <trkpt lat="48.70988" lon="1.99917">
        <ele>163</ele>
        <time>2022-02-15T10:26:12+01:00</time>
      </trkpt>
      <trkpt lat="48.71003" lon="1.99891">
        <ele>162</ele>
        <time>2022-02-15T10:26:31+01:00</time>
      </trkpt>
      <trkpt lat="48.71021" lon="1.99866">
        <ele>160</ele>
        <time>2022-02-15T10:26:50+01:00</time>
      </trkpt>
      <trkpt lat="48.71038" lon="1.99833">
        <ele>159</ele>
        <time>2022-02-15T10:27:14+01:00</time>
      </trkpt>
      <trkpt lat="48.71056" lon="1.99802">
        <ele>158</ele>
        <time>2022-02-15T10:27:37+01:00</time>
      </trkpt>
      <trkpt lat="48.71072" lon="1.99775">
        <ele>158</ele>
        <time>2022-02-15T10:27:55+01:00</time>
      </trkpt>
      <trkpt lat="48.71089" lon="1.99744">
        <ele>159</ele>
        <time>2022-02-15T10:28:18+01:00</time>
      </trkpt>
      <trkpt lat="48.71105" lon="1.99707">
        <ele>159</ele>
        <time>2022-02-15T10:28:43+01:00</time>
      </trkpt>
      <trkpt lat="48.71125" lon="1.99684">
        <ele>158</ele>
        <time>2022-02-15T10:29:01+01:00</time>
      </trkpt>
      <trkpt lat="48.71148" lon="1.99658">
        <ele>159</ele>
        <time>2022-02-15T10:29:23+01:00</time>
      </trkpt>
      <trkpt lat="48.71167" lon="1.99638">
        <ele>161</ele>
        <time>2022-02-15T10:29:40+01:00</time>
      </trkpt>
      <trkpt lat="48.71185" lon="1.99607">
        <ele>161</ele>
        <time>2022-02-15T10:30:04+01:00</time>
      </trkpt>
      <trkpt lat="48.71204" lon="1.9958">
        <ele>161</ele>
        <time>2022-02-15T10:30:25+01:00</time>
      </trkpt>
      <trkpt lat="48.71228" lon="1.9955">
        <ele>162</ele>
        <time>2022-02-15T10:30:49+01:00</time>
      </trkpt>
      <trkpt lat="48.71251" lon="1.99529">
        <ele>165</ele>
        <time>2022-02-15T10:31:12+01:00</time>
      </trkpt>
      <trkpt lat="48.71273" lon="1.99512">
        <ele>166</ele>
        <time>2022-02-15T10:31:31+01:00</time>
      </trkpt>
      <trkpt lat="48.71302" lon="1.99496">
        <ele>166</ele>
        <time>2022-02-15T10:31:56+01:00</time>
      </trkpt>
      <trkpt lat="48.71326" lon="1.99485">
        <ele>167</ele>
        <time>2022-02-15T10:32:15+01:00</time>
      </trkpt>
      <trkpt lat="48.71353" lon="1.99472">
        <ele>165</ele>
        <time>2022-02-15T10:32:38+01:00</time>
      </trkpt>
      <trkpt lat="48.71374" lon="1.99459">
        <ele>162</ele>
        <time>2022-02-15T10:32:54+01:00</time>
      </trkpt>
      <trkpt lat="48.71395" lon="1.99447">
        <ele>163</ele>
        <time>2022-02-15T10:33:13+01:00</time>
      </trkpt>
      <trkpt lat="48.71416" lon="1.99432">
        <ele>166</ele>
        <time>2022-02-15T10:33:31+01:00</time>
      </trkpt>
      <trkpt lat="48.71437" lon="1.99421">
        <ele>164</ele>
        <time>2022-02-15T10:33:47+01:00</time>
      </trkpt>
      <trkpt lat="48.71421" lon="1.99396">
        <ele>162</ele>
        <time>2022-02-15T10:34:15+01:00</time>
      </trkpt>
      <trkpt lat="48.714" lon="1.99385">
        <ele>162</ele>
        <time>2022-02-15T10:34:34+01:00</time>
      </trkpt>
      <trkpt lat="48.71378" lon="1.9937">
        <ele>166</ele>
        <time>2022-02-15T10:34:54+01:00</time>
      </trkpt>
      <trkpt lat="48.71356" lon="1.99358">
        <ele>169</ele>
        <time>2022-02-15T10:35:13+01:00</time>
      </trkpt>
      <trkpt lat="48.71334" lon="1.99342">
        <ele>169</ele>
        <time>2022-02-15T10:35:34+01:00</time>
      </trkpt>
      <trkpt lat="48.71313" lon="1.99333">
        <ele>168</ele>
        <time>2022-02-15T10:35:51+01:00</time>
      </trkpt>
      <trkpt lat="48.71291" lon="1.99313">
        <ele>168</ele>
        <time>2022-02-15T10:36:13+01:00</time>
      </trkpt>
      <trkpt lat="48.7127" lon="1.99278">
        <ele>164</ele>
        <time>2022-02-15T10:36:46+01:00</time>
      </trkpt>
      <trkpt lat="48.71263" lon="1.99244">
        <ele>161</ele>
        <time>2022-02-15T10:37:02+01:00</time>
      </trkpt>
      <trkpt lat="48.71265" lon="1.99209">
        <ele>154</ele>
        <time>2022-02-15T10:37:25+01:00</time>
      </trkpt>
      <trkpt lat="48.71271" lon="1.99174">
        <ele>146</ele>
        <time>2022-02-15T10:37:50+01:00</time>
      </trkpt>
      <trkpt lat="48.7127" lon="1.99136">
        <ele>144</ele>
        <time>2022-02-15T10:38:17+01:00</time>
      </trkpt>
      <trkpt lat="48.71256" lon="1.99102">
        <ele>142</ele>
        <time>2022-02-15T10:38:48+01:00</time>
      </trkpt>
      <trkpt lat="48.71244" lon="1.99067">
        <ele>138</ele>
        <time>2022-02-15T10:39:11+01:00</time>
      </trkpt>
      <trkpt lat="48.71249" lon="1.99034">
        <ele>133</ele>
        <time>2022-02-15T10:39:30+01:00</time>
      </trkpt>
      <trkpt lat="48.71259" lon="1.98995">
        <ele>128</ele>
        <time>2022-02-15T10:39:53+01:00</time>
      </trkpt>
      <trkpt lat="48.71254" lon="1.98949">
        <ele>128</ele>
        <time>2022-02-15T10:40:25+01:00</time>
      </trkpt>
      <trkpt lat="48.71233" lon="1.98931">
        <ele>125</ele>
        <time>2022-02-15T10:40:49+01:00</time>
      </trkpt>
      <trkpt lat="48.71207" lon="1.98928">
        <ele>120</ele>
        <time>2022-02-15T10:41:14+01:00</time>
      </trkpt>
      <trkpt lat="48.71185" lon="1.98938">
        <ele>112</ele>
        <time>2022-02-15T10:41:42+01:00</time>
      </trkpt>
      <trkpt lat="48.71179" lon="1.98905">
        <ele>104</ele>
        <time>2022-02-15T10:43:12+01:00</time>
      </trkpt>
      <trkpt lat="48.71192" lon="1.98877">
        <ele>101</ele>
        <time>2022-02-15T10:43:31+01:00</time>
      </trkpt>
      <trkpt lat="48.7121" lon="1.98856">
        <ele>102</ele>
        <time>2022-02-15T10:43:49+01:00</time>
      </trkpt>
      <trkpt lat="48.71223" lon="1.98827">
        <ele>103</ele>
        <time>2022-02-15T10:44:06+01:00</time>
      </trkpt>
      <trkpt lat="48.71233" lon="1.98796">
        <ele>104</ele>
        <time>2022-02-15T10:44:26+01:00</time>
      </trkpt>
      <trkpt lat="48.71252" lon="1.98768">
        <ele>104</ele>
        <time>2022-02-15T10:44:48+01:00</time>
      </trkpt>
      <trkpt lat="48.71265" lon="1.98733">
        <ele>103</ele>
        <time>2022-02-15T10:45:11+01:00</time>
      </trkpt>
      <trkpt lat="48.71284" lon="1.98699">
        <ele>105</ele>
        <time>2022-02-15T10:45:38+01:00</time>
      </trkpt>
      <trkpt lat="48.71296" lon="1.98669">
        <ele>109</ele>
        <time>2022-02-15T10:45:57+01:00</time>
      </trkpt>
      <trkpt lat="48.71304" lon="1.98636">
        <ele>108</ele>
        <time>2022-02-15T10:46:14+01:00</time>
      </trkpt>
      <trkpt lat="48.71317" lon="1.98607">
        <ele>107</ele>
        <time>2022-02-15T10:46:35+01:00</time>
      </trkpt>
      <trkpt lat="48.71323" lon="1.98572">
        <ele>107</ele>
        <time>2022-02-15T10:46:52+01:00</time>
      </trkpt>
      <trkpt lat="48.71329" lon="1.98529">
        <ele>98</ele>
        <time>2022-02-15T10:47:18+01:00</time>
      </trkpt>
      <trkpt lat="48.71355" lon="1.98531">
        <ele>110</ele>
        <time>2022-02-15T10:51:02+01:00</time>
      </trkpt>
      <trkpt lat="48.71382" lon="1.98538">
        <ele>105</ele>
        <time>2022-02-15T10:51:27+01:00</time>
      </trkpt>
      <trkpt lat="48.71398" lon="1.98562">
        <ele>101</ele>
        <time>2022-02-15T10:51:48+01:00</time>
      </trkpt>
      <trkpt lat="48.7142" lon="1.9858">
        <ele>102</ele>
        <time>2022-02-15T10:52:10+01:00</time>
      </trkpt>
      <trkpt lat="48.71443" lon="1.98586">
        <ele>108</ele>
        <time>2022-02-15T10:52:34+01:00</time>
      </trkpt>
      <trkpt lat="48.71467" lon="1.98588">
        <ele>114</ele>
        <time>2022-02-15T10:52:58+01:00</time>
      </trkpt>
      <trkpt lat="48.71488" lon="1.98574">
        <ele>117</ele>
        <time>2022-02-15T10:53:17+01:00</time>
      </trkpt>
      <trkpt lat="48.71511" lon="1.9855">
        <ele>125</ele>
        <time>2022-02-15T10:53:42+01:00</time>
      </trkpt>
      <trkpt lat="48.71529" lon="1.98526">
        <ele>128</ele>
        <time>2022-02-15T10:54:09+01:00</time>
      </trkpt>
      <trkpt lat="48.71557" lon="1.98518">
        <ele>131</ele>
        <time>2022-02-15T10:54:30+01:00</time>
      </trkpt>
      <trkpt lat="48.71583" lon="1.98497">
        <ele>132</ele>
        <time>2022-02-15T10:54:55+01:00</time>
      </trkpt>
      <trkpt lat="48.71603" lon="1.98476">
        <ele>132</ele>
        <time>2022-02-15T10:55:23+01:00</time>
      </trkpt>
      <trkpt lat="48.71626" lon="1.98467">
        <ele>132</ele>
        <time>2022-02-15T10:55:43+01:00</time>
      </trkpt>
      <trkpt lat="48.7165" lon="1.98466">
        <ele>131</ele>
        <time>2022-02-15T10:56:09+01:00</time>
      </trkpt>
      <trkpt lat="48.71678" lon="1.98462">
        <ele>129</ele>
        <time>2022-02-15T10:56:45+01:00</time>
      </trkpt>
      <trkpt lat="48.71695" lon="1.98438">
        <ele>142</ele>
        <time>2022-02-15T10:57:21+01:00</time>
      </trkpt>
      <trkpt lat="48.71718" lon="1.98432">
        <ele>146</ele>
        <time>2022-02-15T10:57:42+01:00</time>
      </trkpt>
      <trkpt lat="48.71741" lon="1.98429">
        <ele>154</ele>
        <time>2022-02-15T10:58:22+01:00</time>
      </trkpt>
      <trkpt lat="48.71758" lon="1.98404">
        <ele>156</ele>
        <time>2022-02-15T10:58:48+01:00</time>
      </trkpt>
      <trkpt lat="48.71777" lon="1.98376">
        <ele>157</ele>
        <time>2022-02-15T10:59:11+01:00</time>
      </trkpt>
      <trkpt lat="48.71801" lon="1.98364">
        <ele>159</ele>
        <time>2022-02-15T10:59:36+01:00</time>
      </trkpt>
      <trkpt lat="48.71825" lon="1.98361">
        <ele>150</ele>
        <time>2022-02-15T10:59:50+01:00</time>
      </trkpt>
      <trkpt lat="48.71849" lon="1.98356">
        <ele>160</ele>
        <time>2022-02-15T11:00:47+01:00</time>
      </trkpt>
      <trkpt lat="48.71835" lon="1.98322">
        <ele>164</ele>
        <time>2022-02-15T11:03:13+01:00</time>
      </trkpt>
      <trkpt lat="48.71829" lon="1.98289">
        <ele>167</ele>
        <time>2022-02-15T11:03:34+01:00</time>
      </trkpt>
      <trkpt lat="48.71823" lon="1.98255">
        <ele>170</ele>
        <time>2022-02-15T11:03:54+01:00</time>
      </trkpt>
      <trkpt lat="48.71816" lon="1.98221">
        <ele>170</ele>
        <time>2022-02-15T11:04:13+01:00</time>
      </trkpt>
      <trkpt lat="48.71807" lon="1.98189">
        <ele>168</ele>
        <time>2022-02-15T11:04:33+01:00</time>
      </trkpt>
      <trkpt lat="48.71793" lon="1.98161">
        <ele>171</ele>
        <time>2022-02-15T11:04:55+01:00</time>
      </trkpt>
      <trkpt lat="48.71779" lon="1.98133">
        <ele>175</ele>
        <time>2022-02-15T11:05:16+01:00</time>
      </trkpt>
      <trkpt lat="48.71765" lon="1.98104">
        <ele>175</ele>
        <time>2022-02-15T11:05:37+01:00</time>
      </trkpt>
      <trkpt lat="48.71753" lon="1.98076">
        <ele>175</ele>
        <time>2022-02-15T11:05:55+01:00</time>
      </trkpt>
      <trkpt lat="48.71742" lon="1.98044">
        <ele>175</ele>
        <time>2022-02-15T11:06:14+01:00</time>
      </trkpt>
      <trkpt lat="48.71731" lon="1.98013">
        <ele>175</ele>
        <time>2022-02-15T11:06:35+01:00</time>
      </trkpt>
      <trkpt lat="48.71721" lon="1.97982">
        <ele>179</ele>
        <time>2022-02-15T11:06:55+01:00</time>
      </trkpt>
      <trkpt lat="48.71709" lon="1.9795">
        <ele>178</ele>
        <time>2022-02-15T11:07:14+01:00</time>
      </trkpt>
      <trkpt lat="48.71695" lon="1.97915">
        <ele>178</ele>
        <time>2022-02-15T11:07:38+01:00</time>
      </trkpt>
      <trkpt lat="48.71682" lon="1.97884">
        <ele>178</ele>
        <time>2022-02-15T11:08:01+01:00</time>
      </trkpt>
      <trkpt lat="48.71671" lon="1.97852">
        <ele>175</ele>
        <time>2022-02-15T11:08:19+01:00</time>
      </trkpt>
      <trkpt lat="48.7166" lon="1.97821">
        <ele>168</ele>
        <time>2022-02-15T11:08:38+01:00</time>
      </trkpt>
      <trkpt lat="48.7165" lon="1.97789">
        <ele>165</ele>
        <time>2022-02-15T11:08:56+01:00</time>
      </trkpt>
      <trkpt lat="48.7164" lon="1.97758">
        <ele>162</ele>
        <time>2022-02-15T11:09:16+01:00</time>
      </trkpt>
      <trkpt lat="48.71633" lon="1.97725">
        <ele>155</ele>
        <time>2022-02-15T11:10:00+01:00</time>
      </trkpt>
      <trkpt lat="48.71631" lon="1.97685">
        <ele>150</ele>
        <time>2022-02-15T11:10:28+01:00</time>
      </trkpt>
      <trkpt lat="48.71631" lon="1.97639">
        <ele>142</ele>
        <time>2022-02-15T11:10:54+01:00</time>
      </trkpt>
      <trkpt lat="48.71642" lon="1.97595">
        <ele>139</ele>
        <time>2022-02-15T11:11:32+01:00</time>
      </trkpt>
      <trkpt lat="48.71639" lon="1.97552">
        <ele>135</ele>
        <time>2022-02-15T11:12:30+01:00</time>
      </trkpt>
      <trkpt lat="48.71614" lon="1.97523">
        <ele>124</ele>
        <time>2022-02-15T11:13:28+01:00</time>
      </trkpt>
      <trkpt lat="48.71626" lon="1.97485">
        <ele>115</ele>
        <time>2022-02-15T11:14:17+01:00</time>
      </trkpt>
      <trkpt lat="48.71631" lon="1.97452">
        <ele>110</ele>
        <time>2022-02-15T11:15:20+01:00</time>
      </trkpt>
      <trkpt lat="48.71648" lon="1.97429">
        <ele>115</ele>
        <time>2022-02-15T11:15:41+01:00</time>
      </trkpt>
      <trkpt lat="48.71654" lon="1.9739">
        <ele>116</ele>
        <time>2022-02-15T11:16:17+01:00</time>
      </trkpt>
      <trkpt lat="48.71665" lon="1.97359">
        <ele>115</ele>
        <time>2022-02-15T11:16:35+01:00</time>
      </trkpt>
      <trkpt lat="48.7168" lon="1.97331">
        <ele>115</ele>
        <time>2022-02-15T11:16:53+01:00</time>
      </trkpt>
      <trkpt lat="48.71692" lon="1.973">
        <ele>101</ele>
        <time>2022-02-15T11:17:15+01:00</time>
      </trkpt>
      <trkpt lat="48.71691" lon="1.97264">
        <ele>97</ele>
        <time>2022-02-15T11:17:34+01:00</time>
      </trkpt>
      <trkpt lat="48.71699" lon="1.9723">
        <ele>100</ele>
        <time>2022-02-15T11:17:53+01:00</time>
      </trkpt>
      <trkpt lat="48.71707" lon="1.97198">
        <ele>104</ele>
        <time>2022-02-15T11:18:12+01:00</time>
      </trkpt>
      <trkpt lat="48.71712" lon="1.97165">
        <ele>109</ele>
        <time>2022-02-15T11:18:32+01:00</time>
      </trkpt>
      <trkpt lat="48.71722" lon="1.97127">
        <ele>111</ele>
        <time>2022-02-15T11:18:53+01:00</time>
      </trkpt>
      <trkpt lat="48.71731" lon="1.97096">
        <ele>111</ele>
        <time>2022-02-15T11:19:14+01:00</time>
      </trkpt>
      <trkpt lat="48.71729" lon="1.97057">
        <ele>109</ele>
        <time>2022-02-15T11:19:45+01:00</time>
      </trkpt>
      <trkpt lat="48.71735" lon="1.97023">
        <ele>109</ele>
        <time>2022-02-15T11:20:20+01:00</time>
      </trkpt>
      <trkpt lat="48.71753" lon="1.96984">
        <ele>103</ele>
        <time>2022-02-15T11:21:06+01:00</time>
      </trkpt>
      <trkpt lat="48.71752" lon="1.96949">
        <ele>105</ele>
        <time>2022-02-15T11:21:31+01:00</time>
      </trkpt>
      <trkpt lat="48.71753" lon="1.96906">
        <ele>105</ele>
        <time>2022-02-15T11:22:10+01:00</time>
      </trkpt>
      <trkpt lat="48.7173" lon="1.96901">
        <ele>102</ele>
        <time>2022-02-15T11:23:51+01:00</time>
      </trkpt>
      <trkpt lat="48.7171" lon="1.96883">
        <ele>103</ele>
        <time>2022-02-15T11:24:08+01:00</time>
      </trkpt>
      <trkpt lat="48.71687" lon="1.96875">
        <ele>100</ele>
        <time>2022-02-15T11:24:28+01:00</time>
      </trkpt>
      <trkpt lat="48.71665" lon="1.96864">
        <ele>104</ele>
        <time>2022-02-15T11:24:47+01:00</time>
      </trkpt>
      <trkpt lat="48.71642" lon="1.96862">
        <ele>108</ele>
        <time>2022-02-15T11:25:04+01:00</time>
      </trkpt>
      <trkpt lat="48.71619" lon="1.96863">
        <ele>108</ele>
        <time>2022-02-15T11:25:23+01:00</time>
      </trkpt>
      <trkpt lat="48.716" lon="1.9688">
        <ele>105</ele>
        <time>2022-02-15T11:25:45+01:00</time>
      </trkpt>
      <trkpt lat="48.71577" lon="1.96879">
        <ele>105</ele>
        <time>2022-02-15T11:26:03+01:00</time>
      </trkpt>
      <trkpt lat="48.71555" lon="1.96867">
        <ele>106</ele>
        <time>2022-02-15T11:26:22+01:00</time>
      </trkpt>
      <trkpt lat="48.71533" lon="1.96855">
        <ele>107</ele>
        <time>2022-02-15T11:26:42+01:00</time>
      </trkpt>
      <trkpt lat="48.71511" lon="1.96845">
        <ele>109</ele>
        <time>2022-02-15T11:27:03+01:00</time>
      </trkpt>
      <trkpt lat="48.71489" lon="1.96834">
        <ele>112</ele>
        <time>2022-02-15T11:27:22+01:00</time>
      </trkpt>
      <trkpt lat="48.7147" lon="1.96815">
        <ele>111</ele>
        <time>2022-02-15T11:27:41+01:00</time>
      </trkpt>
      <trkpt lat="48.71478" lon="1.96783">
        <ele>109</ele>
        <time>2022-02-15T11:28:00+01:00</time>
      </trkpt>
      <trkpt lat="48.71489" lon="1.96752">
        <ele>107</ele>
        <time>2022-02-15T11:28:18+01:00</time>
      </trkpt>
      <trkpt lat="48.71489" lon="1.96718">
        <ele>103</ele>
        <time>2022-02-15T11:28:48+01:00</time>
      </trkpt>
      <trkpt lat="48.71471" lon="1.96696">
        <ele>104</ele>
        <time>2022-02-15T11:29:07+01:00</time>
      </trkpt>
      <trkpt lat="48.71451" lon="1.9668">
        <ele>105</ele>
        <time>2022-02-15T11:29:26+01:00</time>
      </trkpt>
      <trkpt lat="48.7143" lon="1.96663">
        <ele>109</ele>
        <time>2022-02-15T11:29:45+01:00</time>
      </trkpt>
      <trkpt lat="48.71408" lon="1.96651">
        <ele>113</ele>
        <time>2022-02-15T11:30:05+01:00</time>
      </trkpt>
      <trkpt lat="48.71388" lon="1.96633">
        <ele>119</ele>
        <time>2022-02-15T11:30:25+01:00</time>
      </trkpt>
      <trkpt lat="48.71369" lon="1.96612">
        <ele>121</ele>
        <time>2022-02-15T11:30:44+01:00</time>
      </trkpt>
      <trkpt lat="48.71348" lon="1.96596">
        <ele>123</ele>
        <time>2022-02-15T11:31:04+01:00</time>
      </trkpt>
      <trkpt lat="48.71329" lon="1.96576">
        <ele>127</ele>
        <time>2022-02-15T11:31:24+01:00</time>
      </trkpt>
      <trkpt lat="48.71306" lon="1.96555">
        <ele>133</ele>
        <time>2022-02-15T11:31:49+01:00</time>
      </trkpt>
      <trkpt lat="48.71295" lon="1.96524">
        <ele>136</ele>
        <time>2022-02-15T11:32:14+01:00</time>
      </trkpt>
      <trkpt lat="48.71276" lon="1.96503">
        <ele>140</ele>
        <time>2022-02-15T11:32:40+01:00</time>
      </trkpt>
      <trkpt lat="48.71255" lon="1.96485">
        <ele>142</ele>
        <time>2022-02-15T11:33:01+01:00</time>
      </trkpt>
      <trkpt lat="48.71234" lon="1.96469">
        <ele>149</ele>
        <time>2022-02-15T11:33:26+01:00</time>
      </trkpt>
      <trkpt lat="48.71213" lon="1.96438">
        <ele>161</ele>
        <time>2022-02-15T11:33:55+01:00</time>
      </trkpt>
      <trkpt lat="48.71196" lon="1.96414">
        <ele>171</ele>
        <time>2022-02-15T11:34:18+01:00</time>
      </trkpt>
      <trkpt lat="48.71176" lon="1.96396">
        <ele>168</ele>
        <time>2022-02-15T11:34:38+01:00</time>
      </trkpt>
      <trkpt lat="48.71156" lon="1.96377">
        <ele>165</ele>
        <time>2022-02-15T11:34:57+01:00</time>
      </trkpt>
      <trkpt lat="48.71136" lon="1.96358">
        <ele>164</ele>
        <time>2022-02-15T11:35:15+01:00</time>
      </trkpt>
      <trkpt lat="48.71116" lon="1.96342">
        <ele>164</ele>
        <time>2022-02-15T11:35:33+01:00</time>
      </trkpt>
      <trkpt lat="48.71097" lon="1.96321">
        <ele>160</ele>
        <time>2022-02-15T11:35:51+01:00</time>
      </trkpt>
      <trkpt lat="48.71076" lon="1.9631">
        <ele>168</ele>
        <time>2022-02-15T11:36:10+01:00</time>
      </trkpt>
      <trkpt lat="48.71056" lon="1.96291">
        <ele>167</ele>
        <time>2022-02-15T11:36:28+01:00</time>
      </trkpt>
      <trkpt lat="48.71037" lon="1.96273">
        <ele>163</ele>
        <time>2022-02-15T11:36:46+01:00</time>
      </trkpt>
      <trkpt lat="48.71017" lon="1.96256">
        <ele>162</ele>
        <time>2022-02-15T11:37:04+01:00</time>
      </trkpt>
      <trkpt lat="48.70997" lon="1.96239">
        <ele>162</ele>
        <time>2022-02-15T11:37:22+01:00</time>
      </trkpt>
      <trkpt lat="48.70978" lon="1.96222">
        <ele>162</ele>
        <time>2022-02-15T11:37:39+01:00</time>
      </trkpt>
      <trkpt lat="48.70957" lon="1.96205">
        <ele>163</ele>
        <time>2022-02-15T11:37:58+01:00</time>
      </trkpt>
      <trkpt lat="48.70936" lon="1.96189">
        <ele>164</ele>
        <time>2022-02-15T11:38:17+01:00</time>
      </trkpt>
      <trkpt lat="48.70916" lon="1.96173">
        <ele>164</ele>
        <time>2022-02-15T11:38:35+01:00</time>
      </trkpt>
      <trkpt lat="48.70898" lon="1.96141">
        <ele>164</ele>
        <time>2022-02-15T11:39:11+01:00</time>
      </trkpt>
      <trkpt lat="48.7088" lon="1.96119">
        <ele>164</ele>
        <time>2022-02-15T11:41:25+01:00</time>
      </trkpt>
      <trkpt lat="48.70861" lon="1.961">
        <ele>163</ele>
        <time>2022-02-15T11:41:45+01:00</time>
      </trkpt>
      <trkpt lat="48.70842" lon="1.9608">
        <ele>162</ele>
        <time>2022-02-15T11:42:05+01:00</time>
      </trkpt>
      <trkpt lat="48.70824" lon="1.96059">
        <ele>162</ele>
        <time>2022-02-15T11:42:24+01:00</time>
      </trkpt>
      <trkpt lat="48.70805" lon="1.96038">
        <ele>162</ele>
        <time>2022-02-15T11:42:43+01:00</time>
      </trkpt>
      <trkpt lat="48.70789" lon="1.96012">
        <ele>165</ele>
        <time>2022-02-15T11:42:59+01:00</time>
      </trkpt>
      <trkpt lat="48.70771" lon="1.95989">
        <ele>166</ele>
        <time>2022-02-15T11:43:20+01:00</time>
      </trkpt>
      <trkpt lat="48.70752" lon="1.95969">
        <ele>166</ele>
        <time>2022-02-15T11:43:36+01:00</time>
      </trkpt>
      <trkpt lat="48.7073" lon="1.95981">
        <ele>164</ele>
        <time>2022-02-15T11:44:01+01:00</time>
      </trkpt>
      <trkpt lat="48.7072" lon="1.96013">
        <ele>168</ele>
        <time>2022-02-15T11:44:20+01:00</time>
      </trkpt>
      <trkpt lat="48.70709" lon="1.96044">
        <ele>169</ele>
        <time>2022-02-15T11:44:41+01:00</time>
      </trkpt>
      <trkpt lat="48.70688" lon="1.9606">
        <ele>170</ele>
        <time>2022-02-15T11:44:57+01:00</time>
      </trkpt>
      <trkpt lat="48.7067" lon="1.96081">
        <ele>169</ele>
        <time>2022-02-15T11:45:15+01:00</time>
      </trkpt>
      <trkpt lat="48.70652" lon="1.96102">
        <ele>167</ele>
        <time>2022-02-15T11:45:34+01:00</time>
      </trkpt>
      <trkpt lat="48.70635" lon="1.96125">
        <ele>165</ele>
        <time>2022-02-15T11:45:55+01:00</time>
      </trkpt>
      <trkpt lat="48.70617" lon="1.96149">
        <ele>167</ele>
        <time>2022-02-15T11:46:14+01:00</time>
      </trkpt>
      <trkpt lat="48.70598" lon="1.96179">
        <ele>168</ele>
        <time>2022-02-15T11:46:39+01:00</time>
      </trkpt>
      <trkpt lat="48.70591" lon="1.96217">
        <ele>170</ele>
        <time>2022-02-15T11:47:03+01:00</time>
      </trkpt>
      <trkpt lat="48.70586" lon="1.96251">
        <ele>170</ele>
        <time>2022-02-15T11:47:18+01:00</time>
      </trkpt>
      <trkpt lat="48.70577" lon="1.96284">
        <ele>170</ele>
        <time>2022-02-15T11:47:39+01:00</time>
      </trkpt>
      <trkpt lat="48.70567" lon="1.96324">
        <ele>172</ele>
        <time>2022-02-15T11:48:02+01:00</time>
      </trkpt>
      <trkpt lat="48.70556" lon="1.96356">
        <ele>173</ele>
        <time>2022-02-15T11:48:19+01:00</time>
      </trkpt>
      <trkpt lat="48.70538" lon="1.96377">
        <ele>173</ele>
        <time>2022-02-15T11:48:38+01:00</time>
      </trkpt>
      <trkpt lat="48.7052" lon="1.96398">
        <ele>171</ele>
        <time>2022-02-15T11:48:58+01:00</time>
      </trkpt>
      <trkpt lat="48.70511" lon="1.9643">
        <ele>171</ele>
        <time>2022-02-15T11:49:18+01:00</time>
      </trkpt>
      <trkpt lat="48.7049" lon="1.96455">
        <ele>169</ele>
        <time>2022-02-15T11:49:42+01:00</time>
      </trkpt>
      <trkpt lat="48.70473" lon="1.96481">
        <ele>169</ele>
        <time>2022-02-15T11:49:58+01:00</time>
      </trkpt>
      <trkpt lat="48.70451" lon="1.96495">
        <ele>172</ele>
        <time>2022-02-15T11:50:49+01:00</time>
      </trkpt>
      <trkpt lat="48.70444" lon="1.96537">
        <ele>173</ele>
        <time>2022-02-15T11:51:38+01:00</time>
      </trkpt>
      <trkpt lat="48.70436" lon="1.96571">
        <ele>167</ele>
        <time>2022-02-15T11:52:16+01:00</time>
      </trkpt>
      <trkpt lat="48.7043" lon="1.96609">
        <ele>164</ele>
        <time>2022-02-15T11:52:36+01:00</time>
      </trkpt>
      <trkpt lat="48.70424" lon="1.96644">
        <ele>160</ele>
        <time>2022-02-15T11:52:55+01:00</time>
      </trkpt>
      <trkpt lat="48.70416" lon="1.96676">
        <ele>158</ele>
        <time>2022-02-15T11:53:13+01:00</time>
      </trkpt>
      <trkpt lat="48.704" lon="1.96708">
        <ele>156</ele>
        <time>2022-02-15T11:53:34+01:00</time>
      </trkpt>
      <trkpt lat="48.70388" lon="1.96738">
        <ele>152</ele>
        <time>2022-02-15T11:56:11+01:00</time>
      </trkpt>
      <trkpt lat="48.70374" lon="1.96785">
        <ele>149</ele>
        <time>2022-02-15T11:56:39+01:00</time>
      </trkpt>
      <trkpt lat="48.70359" lon="1.96813">
        <ele>147</ele>
        <time>2022-02-15T11:56:55+01:00</time>
      </trkpt>
      <trkpt lat="48.70343" lon="1.96837">
        <ele>144</ele>
        <time>2022-02-15T11:57:13+01:00</time>
      </trkpt>
      <trkpt lat="48.70336" lon="1.96877">
        <ele>132</ele>
        <time>2022-02-15T11:57:44+01:00</time>
      </trkpt>
      <trkpt lat="48.70322" lon="1.96906">
        <ele>127</ele>
        <time>2022-02-15T11:58:03+01:00</time>
      </trkpt>
      <trkpt lat="48.70312" lon="1.96871">
        <ele>130</ele>
        <time>2022-02-15T11:58:34+01:00</time>
      </trkpt>
      <trkpt lat="48.70309" lon="1.96827">
        <ele>127</ele>
        <time>2022-02-15T11:59:00+01:00</time>
      </trkpt>
      <trkpt lat="48.70303" lon="1.96794">
        <ele>126</ele>
        <time>2022-02-15T11:59:17+01:00</time>
      </trkpt>
      <trkpt lat="48.70295" lon="1.96762">
        <ele>126</ele>
        <time>2022-02-15T11:59:41+01:00</time>
      </trkpt>
      <trkpt lat="48.70271" lon="1.96758">
        <ele>123</ele>
        <time>2022-02-15T12:00:39+01:00</time>
      </trkpt>
      <trkpt lat="48.70243" lon="1.96766">
        <ele>129</ele>
        <time>2022-02-15T12:01:05+01:00</time>
      </trkpt>
      <trkpt lat="48.70217" lon="1.96768">
        <ele>130</ele>
        <time>2022-02-15T12:01:27+01:00</time>
      </trkpt>
      <trkpt lat="48.70193" lon="1.96772">
        <ele>132</ele>
        <time>2022-02-15T12:01:52+01:00</time>
      </trkpt>
      <trkpt lat="48.70171" lon="1.96761">
        <ele>131</ele>
        <time>2022-02-15T12:02:08+01:00</time>
      </trkpt>
      <trkpt lat="48.70144" lon="1.96772">
        <ele>131</ele>
        <time>2022-02-15T12:02:37+01:00</time>
      </trkpt>
      <trkpt lat="48.70122" lon="1.96782">
        <ele>134</ele>
        <time>2022-02-15T12:02:55+01:00</time>
      </trkpt>
      <trkpt lat="48.70101" lon="1.9677">
        <ele>137</ele>
        <time>2022-02-15T12:03:15+01:00</time>
      </trkpt>
      <trkpt lat="48.70077" lon="1.96765">
        <ele>141</ele>
        <time>2022-02-15T12:03:35+01:00</time>
      </trkpt>
      <trkpt lat="48.70055" lon="1.9677">
        <ele>143</ele>
        <time>2022-02-15T12:04:00+01:00</time>
      </trkpt>
      <trkpt lat="48.70028" lon="1.96768">
        <ele>143</ele>
        <time>2022-02-15T12:04:23+01:00</time>
      </trkpt>
      <trkpt lat="48.70003" lon="1.96771">
        <ele>146</ele>
        <time>2022-02-15T12:04:47+01:00</time>
      </trkpt>
      <trkpt lat="48.7" lon="1.96806">
        <ele>144</ele>
        <time>2022-02-15T12:05:19+01:00</time>
      </trkpt>
      <trkpt lat="48.7" lon="1.96841">
        <ele>141</ele>
        <time>2022-02-15T12:05:36+01:00</time>
      </trkpt>
      <trkpt lat="48.70009" lon="1.97515">
        <ele>92</ele>
        <time>2022-02-15T12:42:01+01:00</time>
      </trkpt>
      <trkpt lat="48.7001" lon="1.9755">
        <ele>103</ele>
        <time>2022-02-15T12:42:26+01:00</time>
      </trkpt>
      <trkpt lat="48.70016" lon="1.97583">
        <ele>102</ele>
        <time>2022-02-15T12:42:46+01:00</time>
      </trkpt>
      <trkpt lat="48.70022" lon="1.97617">
        <ele>106</ele>
        <time>2022-02-15T12:43:04+01:00</time>
      </trkpt>
      <trkpt lat="48.7002" lon="1.97653">
        <ele>105</ele>
        <time>2022-02-15T12:43:22+01:00</time>
      </trkpt>
      <trkpt lat="48.70018" lon="1.97687">
        <ele>103</ele>
        <time>2022-02-15T12:43:43+01:00</time>
      </trkpt>
      <trkpt lat="48.70014" lon="1.97722">
        <ele>99</ele>
        <time>2022-02-15T12:44:02+01:00</time>
      </trkpt>
      <trkpt lat="48.70013" lon="1.97756">
        <ele>98</ele>
        <time>2022-02-15T12:44:18+01:00</time>
      </trkpt>
      <trkpt lat="48.70009" lon="1.97791">
        <ele>98</ele>
        <time>2022-02-15T12:44:36+01:00</time>
      </trkpt>
      <trkpt lat="48.70004" lon="1.97825">
        <ele>100</ele>
        <time>2022-02-15T12:44:55+01:00</time>
      </trkpt>
      <trkpt lat="48.6999" lon="1.97853">
        <ele>97</ele>
        <time>2022-02-15T12:45:14+01:00</time>
      </trkpt>
      <trkpt lat="48.69981" lon="1.97885">
        <ele>95</ele>
        <time>2022-02-15T12:45:27+01:00</time>
      </trkpt>
      <trkpt lat="48.69971" lon="1.97917">
        <ele>92</ele>
        <time>2022-02-15T12:45:49+01:00</time>
      </trkpt>
      <trkpt lat="48.69963" lon="1.9795">
        <ele>92</ele>
        <time>2022-02-15T12:46:06+01:00</time>
      </trkpt>
      <trkpt lat="48.69951" lon="1.9798">
        <ele>92</ele>
        <time>2022-02-15T12:46:25+01:00</time>
      </trkpt>
      <trkpt lat="48.69929" lon="1.97978">
        <ele>97</ele>
        <time>2022-02-15T12:46:45+01:00</time>
      </trkpt>
      <trkpt lat="48.69907" lon="1.97963">
        <ele>99</ele>
        <time>2022-02-15T12:47:03+01:00</time>
      </trkpt>
      <trkpt lat="48.69886" lon="1.97951">
        <ele>102</ele>
        <time>2022-02-15T12:47:19+01:00</time>
      </trkpt>
      <trkpt lat="48.69866" lon="1.97935">
        <ele>104</ele>
        <time>2022-02-15T12:47:40+01:00</time>
      </trkpt>
      <trkpt lat="48.69844" lon="1.97924">
        <ele>105</ele>
        <time>2022-02-15T12:47:58+01:00</time>
      </trkpt>
      <trkpt lat="48.69827" lon="1.979">
        <ele>107</ele>
        <time>2022-02-15T12:48:17+01:00</time>
      </trkpt>
      <trkpt lat="48.69805" lon="1.9789">
        <ele>103</ele>
        <time>2022-02-15T12:48:40+01:00</time>
      </trkpt>
      <trkpt lat="48.69782" lon="1.97896">
        <ele>105</ele>
        <time>2022-02-15T12:49:13+01:00</time>
      </trkpt>
      <trkpt lat="48.6976" lon="1.97883">
        <ele>104</ele>
        <time>2022-02-15T12:49:32+01:00</time>
      </trkpt>
      <trkpt lat="48.69745" lon="1.97911">
        <ele>100</ele>
        <time>2022-02-15T12:49:53+01:00</time>
      </trkpt>
      <trkpt lat="48.69736" lon="1.97943">
        <ele>99</ele>
        <time>2022-02-15T12:50:12+01:00</time>
      </trkpt>
      <trkpt lat="48.69729" lon="1.97977">
        <ele>96</ele>
        <time>2022-02-15T12:50:31+01:00</time>
      </trkpt>
      <trkpt lat="48.69718" lon="1.98008">
        <ele>93</ele>
        <time>2022-02-15T12:50:50+01:00</time>
      </trkpt>
      <trkpt lat="48.69709" lon="1.9804">
        <ele>94</ele>
        <time>2022-02-15T12:51:06+01:00</time>
      </trkpt>
      <trkpt lat="48.69699" lon="1.98072">
        <ele>94</ele>
        <time>2022-02-15T12:51:23+01:00</time>
      </trkpt>
      <trkpt lat="48.6969" lon="1.98104">
        <ele>95</ele>
        <time>2022-02-15T12:51:39+01:00</time>
      </trkpt>
      <trkpt lat="48.69676" lon="1.98133">
        <ele>94</ele>
        <time>2022-02-15T12:51:58+01:00</time>
      </trkpt>
      <trkpt lat="48.69664" lon="1.98165">
        <ele>92</ele>
        <time>2022-02-15T12:52:15+01:00</time>
      </trkpt>
      <trkpt lat="48.69651" lon="1.98193">
        <ele>95</ele>
        <time>2022-02-15T12:52:32+01:00</time>
      </trkpt>
      <trkpt lat="48.69636" lon="1.9822">
        <ele>92</ele>
        <time>2022-02-15T12:52:50+01:00</time>
      </trkpt>
      <trkpt lat="48.6962" lon="1.98245">
        <ele>92</ele>
        <time>2022-02-15T12:53:09+01:00</time>
      </trkpt>
      <trkpt lat="48.69602" lon="1.98267">
        <ele>90</ele>
        <time>2022-02-15T12:53:24+01:00</time>
      </trkpt>
      <trkpt lat="48.69587" lon="1.98291">
        <ele>93</ele>
        <time>2022-02-15T12:53:39+01:00</time>
      </trkpt>
      <trkpt lat="48.69564" lon="1.98302">
        <ele>90</ele>
        <time>2022-02-15T12:54:17+01:00</time>
      </trkpt>
      <trkpt lat="48.69542" lon="1.98312">
        <ele>80</ele>
        <time>2022-02-15T12:54:41+01:00</time>
      </trkpt>
      <trkpt lat="48.6952" lon="1.98315">
        <ele>77</ele>
        <time>2022-02-15T12:54:55+01:00</time>
      </trkpt>
      <trkpt lat="48.69498" lon="1.98329">
        <ele>78</ele>
        <time>2022-02-15T12:55:12+01:00</time>
      </trkpt>
      <trkpt lat="48.69484" lon="1.98357">
        <ele>79</ele>
        <time>2022-02-15T12:55:26+01:00</time>
      </trkpt>
      <trkpt lat="48.69472" lon="1.98386">
        <ele>88</ele>
        <time>2022-02-15T12:55:43+01:00</time>
      </trkpt>
      <trkpt lat="48.69457" lon="1.98413">
        <ele>87</ele>
        <time>2022-02-15T12:56:04+01:00</time>
      </trkpt>
      <trkpt lat="48.69442" lon="1.98439">
        <ele>87</ele>
        <time>2022-02-15T12:56:20+01:00</time>
      </trkpt>
      <trkpt lat="48.69425" lon="1.98465">
        <ele>90</ele>
        <time>2022-02-15T12:56:38+01:00</time>
      </trkpt>
      <trkpt lat="48.69406" lon="1.98485">
        <ele>94</ele>
        <time>2022-02-15T12:56:59+01:00</time>
      </trkpt>
      <trkpt lat="48.69384" lon="1.98492">
        <ele>98</ele>
        <time>2022-02-15T12:57:15+01:00</time>
      </trkpt>
      <trkpt lat="48.69362" lon="1.98496">
        <ele>93</ele>
        <time>2022-02-15T12:57:40+01:00</time>
      </trkpt>
      <trkpt lat="48.69346" lon="1.98522">
        <ele>101</ele>
        <time>2022-02-15T12:58:13+01:00</time>
      </trkpt>
      <trkpt lat="48.69336" lon="1.98552">
        <ele>104</ele>
        <time>2022-02-15T12:58:36+01:00</time>
      </trkpt>
      <trkpt lat="48.69323" lon="1.98584">
        <ele>107</ele>
        <time>2022-02-15T12:58:59+01:00</time>
      </trkpt>
      <trkpt lat="48.69306" lon="1.98613">
        <ele>109</ele>
        <time>2022-02-15T12:59:33+01:00</time>
      </trkpt>
      <trkpt lat="48.693" lon="1.98646">
        <ele>107</ele>
        <time>2022-02-15T13:00:08+01:00</time>
      </trkpt>
      <trkpt lat="48.69288" lon="1.98675">
        <ele>116</ele>
        <time>2022-02-15T13:00:27+01:00</time>
      </trkpt>
      <trkpt lat="48.69274" lon="1.98703">
        <ele>124</ele>
        <time>2022-02-15T13:00:52+01:00</time>
      </trkpt>
      <trkpt lat="48.69254" lon="1.9872">
        <ele>135</ele>
        <time>2022-02-15T13:01:07+01:00</time>
      </trkpt>
      <trkpt lat="48.6923" lon="1.98725">
        <ele>143</ele>
        <time>2022-02-15T13:01:35+01:00</time>
      </trkpt>
      <trkpt lat="48.6924" lon="1.98757">
        <ele>147</ele>
        <time>2022-02-15T13:02:10+01:00</time>
      </trkpt>
      <trkpt lat="48.69247" lon="1.9879">
        <ele>150</ele>
        <time>2022-02-15T13:02:38+01:00</time>
      </trkpt>
      <trkpt lat="48.69243" lon="1.98823">
        <ele>161</ele>
        <time>2022-02-15T13:03:10+01:00</time>
      </trkpt>
      <trkpt lat="48.69248" lon="1.98858">
        <ele>164</ele>
        <time>2022-02-15T13:03:35+01:00</time>
      </trkpt>
      <trkpt lat="48.69229" lon="1.98879">
        <ele>167</ele>
        <time>2022-02-15T13:03:56+01:00</time>
      </trkpt>
      <trkpt lat="48.69208" lon="1.98888">
        <ele>177</ele>
        <time>2022-02-15T13:06:55+01:00</time>
      </trkpt>
      <trkpt lat="48.69186" lon="1.98877">
        <ele>178</ele>
        <time>2022-02-15T13:07:21+01:00</time>
      </trkpt>
      <trkpt lat="48.69166" lon="1.9886">
        <ele>176</ele>
        <time>2022-02-15T13:07:40+01:00</time>
      </trkpt>
      <trkpt lat="48.69145" lon="1.98844">
        <ele>161</ele>
        <time>2022-02-15T13:08:07+01:00</time>
      </trkpt>
      <trkpt lat="48.69125" lon="1.98821">
        <ele>165</ele>
        <time>2022-02-15T13:08:19+01:00</time>
      </trkpt>
      <trkpt lat="48.69102" lon="1.98823">
        <ele>170</ele>
        <time>2022-02-15T13:08:46+01:00</time>
      </trkpt>
      <trkpt lat="48.6908" lon="1.98825">
        <ele>165</ele>
        <time>2022-02-15T13:09:07+01:00</time>
      </trkpt>
      <trkpt lat="48.69059" lon="1.98838">
        <ele>168</ele>
        <time>2022-02-15T13:09:34+01:00</time>
      </trkpt>
      <trkpt lat="48.6905" lon="1.98806">
        <ele>166</ele>
        <time>2022-02-15T13:10:18+01:00</time>
      </trkpt>
      <trkpt lat="48.69064" lon="1.98779">
        <ele>162</ele>
        <time>2022-02-15T13:10:42+01:00</time>
      </trkpt>
      <trkpt lat="48.69047" lon="1.98757">
        <ele>157</ele>
        <time>2022-02-15T13:11:43+01:00</time>
      </trkpt>
      <trkpt lat="48.69023" lon="1.98755">
        <ele>160</ele>
        <time>2022-02-15T13:12:09+01:00</time>
      </trkpt>
      <trkpt lat="48.69002" lon="1.9874">
        <ele>161</ele>
        <time>2022-02-15T13:12:21+01:00</time>
      </trkpt>
      <trkpt lat="48.68998" lon="1.98706">
        <ele>152</ele>
        <time>2022-02-15T13:12:42+01:00</time>
      </trkpt>
      <trkpt lat="48.68989" lon="1.98675">
        <ele>143</ele>
        <time>2022-02-15T13:13:00+01:00</time>
      </trkpt>
      <trkpt lat="48.68981" lon="1.98642">
        <ele>153</ele>
        <time>2022-02-15T13:13:17+01:00</time>
      </trkpt>
      <trkpt lat="48.6897" lon="1.98612">
        <ele>145</ele>
        <time>2022-02-15T13:13:40+01:00</time>
      </trkpt>
      <trkpt lat="48.68966" lon="1.98578">
        <ele>145</ele>
        <time>2022-02-15T13:14:24+01:00</time>
      </trkpt>
      <trkpt lat="48.68952" lon="1.98549">
        <ele>146</ele>
        <time>2022-02-15T13:14:44+01:00</time>
      </trkpt>
      <trkpt lat="48.68941" lon="1.9852">
        <ele>150</ele>
        <time>2022-02-15T13:15:00+01:00</time>
      </trkpt>
      <trkpt lat="48.6893" lon="1.98487">
        <ele>146</ele>
        <time>2022-02-15T13:15:19+01:00</time>
      </trkpt>
      <trkpt lat="48.68914" lon="1.98463">
        <ele>139</ele>
        <time>2022-02-15T13:15:39+01:00</time>
      </trkpt>
      <trkpt lat="48.68895" lon="1.98441">
        <ele>130</ele>
        <time>2022-02-15T13:15:58+01:00</time>
      </trkpt>
      <trkpt lat="48.68881" lon="1.98413">
        <ele>123</ele>
        <time>2022-02-15T13:16:15+01:00</time>
      </trkpt>
      <trkpt lat="48.68863" lon="1.9839">
        <ele>119</ele>
        <time>2022-02-15T13:16:37+01:00</time>
      </trkpt>
      <trkpt lat="48.68841" lon="1.98384">
        <ele>118</ele>
        <time>2022-02-15T13:16:53+01:00</time>
      </trkpt>
      <trkpt lat="48.68818" lon="1.98377">
        <ele>119</ele>
        <time>2022-02-15T13:17:16+01:00</time>
      </trkpt>
      <trkpt lat="48.68805" lon="1.98406">
        <ele>121</ele>
        <time>2022-02-15T13:18:23+01:00</time>
      </trkpt>
      <trkpt lat="48.68795" lon="1.98437">
        <ele>128</ele>
        <time>2022-02-15T13:18:47+01:00</time>
      </trkpt>
      <trkpt lat="48.68786" lon="1.98468">
        <ele>131</ele>
        <time>2022-02-15T13:19:05+01:00</time>
      </trkpt>
      <trkpt lat="48.68773" lon="1.98497">
        <ele>136</ele>
        <time>2022-02-15T13:19:29+01:00</time>
      </trkpt>
      <trkpt lat="48.68761" lon="1.98527">
        <ele>137</ele>
        <time>2022-02-15T13:19:52+01:00</time>
      </trkpt>
      <trkpt lat="48.68746" lon="1.98553">
        <ele>139</ele>
        <time>2022-02-15T13:20:09+01:00</time>
      </trkpt>
      <trkpt lat="48.68732" lon="1.98581">
        <ele>140</ele>
        <time>2022-02-15T13:20:29+01:00</time>
      </trkpt>
      <trkpt lat="48.6872" lon="1.9861">
        <ele>144</ele>
        <time>2022-02-15T13:20:50+01:00</time>
      </trkpt>
      <trkpt lat="48.68712" lon="1.98642">
        <ele>147</ele>
        <time>2022-02-15T13:21:13+01:00</time>
      </trkpt>
      <trkpt lat="48.68698" lon="1.98671">
        <ele>145</ele>
        <time>2022-02-15T13:21:31+01:00</time>
      </trkpt>
      <trkpt lat="48.68685" lon="1.98699">
        <ele>148</ele>
        <time>2022-02-15T13:21:52+01:00</time>
      </trkpt>
      <trkpt lat="48.68665" lon="1.98717">
        <ele>152</ele>
        <time>2022-02-15T13:22:14+01:00</time>
      </trkpt>
      <trkpt lat="48.68644" lon="1.98732">
        <ele>155</ele>
        <time>2022-02-15T13:22:55+01:00</time>
      </trkpt>
      <trkpt lat="48.68622" lon="1.98747">
        <ele>155</ele>
        <time>2022-02-15T13:23:15+01:00</time>
      </trkpt>
      <trkpt lat="48.686" lon="1.9876">
        <ele>158</ele>
        <time>2022-02-15T13:23:36+01:00</time>
      </trkpt>
      <trkpt lat="48.68583" lon="1.98782">
        <ele>162</ele>
        <time>2022-02-15T13:24:01+01:00</time>
      </trkpt>
      <trkpt lat="48.68568" lon="1.98808">
        <ele>166</ele>
        <time>2022-02-15T13:24:28+01:00</time>
      </trkpt>
      <trkpt lat="48.68553" lon="1.98835">
        <ele>167</ele>
        <time>2022-02-15T13:24:54+01:00</time>
      </trkpt>
      <trkpt lat="48.68576" lon="1.98834">
        <ele>167</ele>
        <time>2022-02-15T13:28:45+01:00</time>
      </trkpt>
      <trkpt lat="48.68598" lon="1.98841">
        <ele>169</ele>
        <time>2022-02-15T13:29:05+01:00</time>
      </trkpt>
      <trkpt lat="48.6862" lon="1.9883">
        <ele>166</ele>
        <time>2022-02-15T13:29:27+01:00</time>
      </trkpt>
      <trkpt lat="48.68643" lon="1.98831">
        <ele>165</ele>
        <time>2022-02-15T13:29:48+01:00</time>
      </trkpt>
      <trkpt lat="48.68666" lon="1.98832">
        <ele>164</ele>
        <time>2022-02-15T13:30:07+01:00</time>
      </trkpt>
      <trkpt lat="48.68689" lon="1.98825">
        <ele>167</ele>
        <time>2022-02-15T13:30:28+01:00</time>
      </trkpt>
      <trkpt lat="48.68706" lon="1.98802">
        <ele>176</ele>
        <time>2022-02-15T13:30:43+01:00</time>
      </trkpt>
      <trkpt lat="48.68725" lon="1.98782">
        <ele>173</ele>
        <time>2022-02-15T13:31:01+01:00</time>
      </trkpt>
      <trkpt lat="48.68744" lon="1.98764">
        <ele>162</ele>
        <time>2022-02-15T13:31:25+01:00</time>
      </trkpt>
      <trkpt lat="48.68762" lon="1.98741">
        <ele>159</ele>
        <time>2022-02-15T13:31:44+01:00</time>
      </trkpt>
      <trkpt lat="48.68774" lon="1.98711">
        <ele>157</ele>
        <time>2022-02-15T13:31:59+01:00</time>
      </trkpt>
      <trkpt lat="48.68789" lon="1.98686">
        <ele>153</ele>
        <time>2022-02-15T13:32:21+01:00</time>
      </trkpt>
      <trkpt lat="48.6881" lon="1.98672">
        <ele>156</ele>
        <time>2022-02-15T13:32:43+01:00</time>
      </trkpt>
      <trkpt lat="48.68833" lon="1.98678">
        <ele>165</ele>
        <time>2022-02-15T13:33:17+01:00</time>
      </trkpt>
      <trkpt lat="48.68851" lon="1.98699">
        <ele>166</ele>
        <time>2022-02-15T13:33:43+01:00</time>
      </trkpt>
      <trkpt lat="48.68873" lon="1.98701">
        <ele>156</ele>
        <time>2022-02-15T13:34:05+01:00</time>
      </trkpt>
      <trkpt lat="48.68895" lon="1.9871">
        <ele>164</ele>
        <time>2022-02-15T13:34:21+01:00</time>
      </trkpt>
      <trkpt lat="48.68918" lon="1.98712">
        <ele>172</ele>
        <time>2022-02-15T13:34:42+01:00</time>
      </trkpt>
      <trkpt lat="48.6893" lon="1.98741">
        <ele>173</ele>
        <time>2022-02-15T13:35:16+01:00</time>
      </trkpt>
      <trkpt lat="48.6894" lon="1.98774">
        <ele>177</ele>
        <time>2022-02-15T13:35:34+01:00</time>
      </trkpt>
      <trkpt lat="48.68945" lon="1.98807">
        <ele>178</ele>
        <time>2022-02-15T13:35:53+01:00</time>
      </trkpt>
      <trkpt lat="48.68965" lon="1.98825">
        <ele>178</ele>
        <time>2022-02-15T13:36:16+01:00</time>
      </trkpt>
      <trkpt lat="48.68987" lon="1.98832">
        <ele>180</ele>
        <time>2022-02-15T13:36:39+01:00</time>
      </trkpt>
      <trkpt lat="48.69009" lon="1.98845">
        <ele>180</ele>
        <time>2022-02-15T13:36:57+01:00</time>
      </trkpt>
      <trkpt lat="48.69033" lon="1.98847">
        <ele>177</ele>
        <time>2022-02-15T13:37:20+01:00</time>
      </trkpt>
      <trkpt lat="48.69039" lon="1.98882">
        <ele>177</ele>
        <time>2022-02-15T13:37:42+01:00</time>
      </trkpt>
      <trkpt lat="48.69042" lon="1.98916">
        <ele>179</ele>
        <time>2022-02-15T13:38:03+01:00</time>
      </trkpt>
      <trkpt lat="48.69037" lon="1.98951">
        <ele>180</ele>
        <time>2022-02-15T13:38:26+01:00</time>
      </trkpt>
      <trkpt lat="48.69032" lon="1.98986">
        <ele>183</ele>
        <time>2022-02-15T13:38:45+01:00</time>
      </trkpt>
      <trkpt lat="48.69024" lon="1.9902">
        <ele>185</ele>
        <time>2022-02-15T13:39:03+01:00</time>
      </trkpt>
      <trkpt lat="48.69019" lon="1.99053">
        <ele>184</ele>
        <time>2022-02-15T13:39:25+01:00</time>
      </trkpt>
      <trkpt lat="48.69008" lon="1.99085">
        <ele>181</ele>
        <time>2022-02-15T13:39:47+01:00</time>
      </trkpt>
      <trkpt lat="48.68996" lon="1.99114">
        <ele>176</ele>
        <time>2022-02-15T13:40:07+01:00</time>
      </trkpt>
      <trkpt lat="48.68977" lon="1.99134">
        <ele>175</ele>
        <time>2022-02-15T13:40:32+01:00</time>
      </trkpt>
      <trkpt lat="48.68959" lon="1.99154">
        <ele>171</ele>
        <time>2022-02-15T13:40:57+01:00</time>
      </trkpt>
      <trkpt lat="48.68939" lon="1.9917">
        <ele>173</ele>
        <time>2022-02-15T13:41:38+01:00</time>
      </trkpt>
      <trkpt lat="48.68942" lon="1.99204">
        <ele>169</ele>
        <time>2022-02-15T13:42:05+01:00</time>
      </trkpt>
      <trkpt lat="48.68923" lon="1.99231">
        <ele>162</ele>
        <time>2022-02-15T13:44:36+01:00</time>
      </trkpt>
      <trkpt lat="48.68909" lon="1.99259">
        <ele>161</ele>
        <time>2022-02-15T13:44:54+01:00</time>
      </trkpt>
      <trkpt lat="48.68898" lon="1.99291">
        <ele>165</ele>
        <time>2022-02-15T13:45:12+01:00</time>
      </trkpt>
      <trkpt lat="48.68891" lon="1.99324">
        <ele>167</ele>
        <time>2022-02-15T13:45:30+01:00</time>
      </trkpt>
      <trkpt lat="48.68884" lon="1.99357">
        <ele>166</ele>
        <time>2022-02-15T13:45:48+01:00</time>
      </trkpt>
      <trkpt lat="48.68878" lon="1.9939">
        <ele>168</ele>
        <time>2022-02-15T13:46:05+01:00</time>
      </trkpt>
      <trkpt lat="48.68872" lon="1.99424">
        <ele>168</ele>
        <time>2022-02-15T13:46:23+01:00</time>
      </trkpt>
      <trkpt lat="48.68867" lon="1.9946">
        <ele>167</ele>
        <time>2022-02-15T13:46:41+01:00</time>
      </trkpt>
      <trkpt lat="48.68862" lon="1.99493">
        <ele>168</ele>
        <time>2022-02-15T13:46:59+01:00</time>
      </trkpt>
      <trkpt lat="48.68856" lon="1.99527">
        <ele>169</ele>
        <time>2022-02-15T13:47:16+01:00</time>
      </trkpt>
      <trkpt lat="48.68852" lon="1.99563">
        <ele>171</ele>
        <time>2022-02-15T13:47:33+01:00</time>
      </trkpt>
      <trkpt lat="48.68846" lon="1.99597">
        <ele>169</ele>
        <time>2022-02-15T13:47:51+01:00</time>
      </trkpt>
      <trkpt lat="48.68842" lon="1.99631">
        <ele>166</ele>
        <time>2022-02-15T13:48:08+01:00</time>
      </trkpt>
      <trkpt lat="48.68837" lon="1.99666">
        <ele>166</ele>
        <time>2022-02-15T13:48:25+01:00</time>
      </trkpt>
      <trkpt lat="48.68833" lon="1.997">
        <ele>168</ele>
        <time>2022-02-15T13:48:42+01:00</time>
      </trkpt>
      <trkpt lat="48.68828" lon="1.99734">
        <ele>164</ele>
        <time>2022-02-15T13:49:01+01:00</time>
      </trkpt>
      <trkpt lat="48.68827" lon="1.9977">
        <ele>167</ele>
        <time>2022-02-15T13:49:18+01:00</time>
      </trkpt>
      <trkpt lat="48.68827" lon="1.99806">
        <ele>167</ele>
        <time>2022-02-15T13:49:35+01:00</time>
      </trkpt>
      <trkpt lat="48.68826" lon="1.99841">
        <ele>167</ele>
        <time>2022-02-15T13:49:52+01:00</time>
      </trkpt>
      <trkpt lat="48.68826" lon="1.99876">
        <ele>168</ele>
        <time>2022-02-15T13:50:09+01:00</time>
      </trkpt>
      <trkpt lat="48.68825" lon="1.9991">
        <ele>169</ele>
        <time>2022-02-15T13:50:26+01:00</time>
      </trkpt>
      <trkpt lat="48.68825" lon="1.99944">
        <ele>167</ele>
        <time>2022-02-15T13:50:41+01:00</time>
      </trkpt>
      <trkpt lat="48.68824" lon="1.99978">
        <ele>167</ele>
        <time>2022-02-15T13:50:55+01:00</time>
      </trkpt>
      <trkpt lat="48.68825" lon="2.00012">
        <ele>167</ele>
        <time>2022-02-15T13:51:17+01:00</time>
      </trkpt>
      <trkpt lat="48.68829" lon="2.00047">
        <ele>163</ele>
        <time>2022-02-15T13:51:35+01:00</time>
      </trkpt>
      <trkpt lat="48.68832" lon="2.00082">
        <ele>167</ele>
        <time>2022-02-15T13:51:52+01:00</time>
      </trkpt>
      <trkpt lat="48.6883" lon="2.00118">
        <ele>164</ele>
        <time>2022-02-15T13:52:10+01:00</time>
      </trkpt>
      <trkpt lat="48.68832" lon="2.00152">
        <ele>162</ele>
        <time>2022-02-15T13:52:28+01:00</time>
      </trkpt>
      <trkpt lat="48.68836" lon="2.00187">
        <ele>164</ele>
        <time>2022-02-15T13:52:47+01:00</time>
      </trkpt>
      <trkpt lat="48.68836" lon="2.00223">
        <ele>165</ele>
        <time>2022-02-15T13:53:04+01:00</time>
      </trkpt>
      <trkpt lat="48.68839" lon="2.00258">
        <ele>167</ele>
        <time>2022-02-15T13:53:23+01:00</time>
      </trkpt>
      <trkpt lat="48.68838" lon="2.00293">
        <ele>165</ele>
        <time>2022-02-15T13:53:41+01:00</time>
      </trkpt>
      <trkpt lat="48.68855" lon="2.00316">
        <ele>164</ele>
        <time>2022-02-15T13:54:12+01:00</time>
      </trkpt>
      <trkpt lat="48.68857" lon="2.00351">
        <ele>164</ele>
        <time>2022-02-15T13:54:30+01:00</time>
      </trkpt>
      <trkpt lat="48.6887" lon="2.0038">
        <ele>164</ele>
        <time>2022-02-15T13:54:55+01:00</time>
      </trkpt>
      <trkpt lat="48.68866" lon="2.00416">
        <ele>162</ele>
        <time>2022-02-15T13:55:20+01:00</time>
      </trkpt>
      <trkpt lat="48.68857" lon="2.0045">
        <ele>161</ele>
        <time>2022-02-15T13:55:36+01:00</time>
      </trkpt>
      <trkpt lat="48.68844" lon="2.00479">
        <ele>164</ele>
        <time>2022-02-15T13:55:56+01:00</time>
      </trkpt>
      <trkpt lat="48.68831" lon="2.00507">
        <ele>165</ele>
        <time>2022-02-15T13:56:08+01:00</time>
      </trkpt>
      <trkpt lat="48.68817" lon="2.00534">
        <ele>164</ele>
        <time>2022-02-15T13:56:30+01:00</time>
      </trkpt>
      <trkpt lat="48.68811" lon="2.00569">
        <ele>168</ele>
        <time>2022-02-15T13:56:50+01:00</time>
      </trkpt>
      <trkpt lat="48.68798" lon="2.00597">
        <ele>167</ele>
        <time>2022-02-15T13:57:07+01:00</time>
      </trkpt>
      <trkpt lat="48.68792" lon="2.00632">
        <ele>167</ele>
        <time>2022-02-15T13:57:27+01:00</time>
      </trkpt>
      <trkpt lat="48.68782" lon="2.00664">
        <ele>158</ele>
        <time>2022-02-15T13:57:49+01:00</time>
      </trkpt>
      <trkpt lat="48.68776" lon="2.00697">
        <ele>160</ele>
        <time>2022-02-15T13:58:05+01:00</time>
      </trkpt>
      <trkpt lat="48.68765" lon="2.00727">
        <ele>154</ele>
        <time>2022-02-15T13:58:21+01:00</time>
      </trkpt>
      <trkpt lat="48.68751" lon="2.00754">
        <ele>153</ele>
        <time>2022-02-15T13:58:42+01:00</time>
      </trkpt>
      <trkpt lat="48.68739" lon="2.00784">
        <ele>151</ele>
        <time>2022-02-15T13:58:59+01:00</time>
      </trkpt>
      <trkpt lat="48.68759" lon="2.00803">
        <ele>146</ele>
        <time>2022-02-15T14:00:28+01:00</time>
      </trkpt>
      <trkpt lat="48.6877" lon="2.00834">
        <ele>146</ele>
        <time>2022-02-15T14:00:47+01:00</time>
      </trkpt>
      <trkpt lat="48.68781" lon="2.00865">
        <ele>144</ele>
        <time>2022-02-15T14:01:04+01:00</time>
      </trkpt>
      <trkpt lat="48.68792" lon="2.00896">
        <ele>142</ele>
        <time>2022-02-15T14:01:26+01:00</time>
      </trkpt>
      <trkpt lat="48.68803" lon="2.00927">
        <ele>138</ele>
        <time>2022-02-15T14:01:42+01:00</time>
      </trkpt>
      <trkpt lat="48.68817" lon="2.00955">
        <ele>137</ele>
        <time>2022-02-15T14:02:02+01:00</time>
      </trkpt>
      <trkpt lat="48.68828" lon="2.00986">
        <ele>132</ele>
        <time>2022-02-15T14:02:23+01:00</time>
      </trkpt>
      <trkpt lat="48.68834" lon="2.01022">
        <ele>127</ele>
        <time>2022-02-15T14:02:40+01:00</time>
      </trkpt>
      <trkpt lat="48.68851" lon="2.01047">
        <ele>123</ele>
        <time>2022-02-15T14:02:53+01:00</time>
      </trkpt>
      <trkpt lat="48.68864" lon="2.01075">
        <ele>130</ele>
        <time>2022-02-15T14:03:09+01:00</time>
      </trkpt>
      <trkpt lat="48.68868" lon="2.01111">
        <ele>126</ele>
        <time>2022-02-15T14:03:28+01:00</time>
      </trkpt>
      <trkpt lat="48.68876" lon="2.01144">
        <ele>130</ele>
        <time>2022-02-15T14:03:43+01:00</time>
      </trkpt>
      <trkpt lat="48.68894" lon="2.01165">
        <ele>119</ele>
        <time>2022-02-15T14:04:04+01:00</time>
      </trkpt>
      <trkpt lat="48.68902" lon="2.01198">
        <ele>115</ele>
        <time>2022-02-15T14:04:21+01:00</time>
      </trkpt>
      <trkpt lat="48.68914" lon="2.01229">
        <ele>111</ele>
        <time>2022-02-15T14:04:39+01:00</time>
      </trkpt>
      <trkpt lat="48.68927" lon="2.01258">
        <ele>109</ele>
        <time>2022-02-15T14:04:55+01:00</time>
      </trkpt>
      <trkpt lat="48.6894" lon="2.01287">
        <ele>109</ele>
        <time>2022-02-15T14:05:13+01:00</time>
      </trkpt>
      <trkpt lat="48.68955" lon="2.01313">
        <ele>108</ele>
        <time>2022-02-15T14:05:33+01:00</time>
      </trkpt>
      <trkpt lat="48.68966" lon="2.01345">
        <ele>104</ele>
        <time>2022-02-15T14:05:53+01:00</time>
      </trkpt>
      <trkpt lat="48.6898" lon="2.01373">
        <ele>107</ele>
        <time>2022-02-15T14:06:04+01:00</time>
      </trkpt>
      <trkpt lat="48.68991" lon="2.01403">
        <ele>109</ele>
        <time>2022-02-15T14:06:21+01:00</time>
      </trkpt>
      <trkpt lat="48.69003" lon="2.01432">
        <ele>106</ele>
        <time>2022-02-15T14:06:39+01:00</time>
      </trkpt>
      <trkpt lat="48.69016" lon="2.0146">
        <ele>103</ele>
        <time>2022-02-15T14:07:00+01:00</time>
      </trkpt>
      <trkpt lat="48.69036" lon="2.0148">
        <ele>100</ele>
        <time>2022-02-15T14:07:19+01:00</time>
      </trkpt>
      <trkpt lat="48.69054" lon="2.01501">
        <ele>96</ele>
        <time>2022-02-15T14:07:46+01:00</time>
      </trkpt>
      <trkpt lat="48.69063" lon="2.01532">
        <ele>100</ele>
        <time>2022-02-15T14:08:23+01:00</time>
      </trkpt>
      <trkpt lat="48.69053" lon="2.01563">
        <ele>102</ele>
        <time>2022-02-15T14:08:39+01:00</time>
      </trkpt>
      <trkpt lat="48.69033" lon="2.0158">
        <ele>100</ele>
        <time>2022-02-15T14:08:59+01:00</time>
      </trkpt>
      <trkpt lat="48.69013" lon="2.01598">
        <ele>98</ele>
        <time>2022-02-15T14:09:15+01:00</time>
      </trkpt>
      <trkpt lat="48.68993" lon="2.01614">
        <ele>97</ele>
        <time>2022-02-15T14:09:33+01:00</time>
      </trkpt>
      <trkpt lat="48.68972" lon="2.01632">
        <ele>101</ele>
        <time>2022-02-15T14:09:50+01:00</time>
      </trkpt>
      <trkpt lat="48.68954" lon="2.01652">
        <ele>100</ele>
        <time>2022-02-15T14:10:09+01:00</time>
      </trkpt>
      <trkpt lat="48.68933" lon="2.01667">
        <ele>95</ele>
        <time>2022-02-15T14:10:28+01:00</time>
      </trkpt>
      <trkpt lat="48.68914" lon="2.01684">
        <ele>94</ele>
        <time>2022-02-15T14:10:48+01:00</time>
      </trkpt>
      <trkpt lat="48.68897" lon="2.01708">
        <ele>96</ele>
        <time>2022-02-15T14:11:03+01:00</time>
      </trkpt>
      <trkpt lat="48.68879" lon="2.01728">
        <ele>99</ele>
        <time>2022-02-15T14:11:22+01:00</time>
      </trkpt>
      <trkpt lat="48.68855" lon="2.01734">
        <ele>98</ele>
        <time>2022-02-15T14:11:40+01:00</time>
      </trkpt>
      <trkpt lat="48.68833" lon="2.01733">
        <ele>96</ele>
        <time>2022-02-15T14:12:00+01:00</time>
      </trkpt>
      <trkpt lat="48.68813" lon="2.0175">
        <ele>99</ele>
        <time>2022-02-15T14:12:19+01:00</time>
      </trkpt>
      <trkpt lat="48.68798" lon="2.01777">
        <ele>104</ele>
        <time>2022-02-15T14:12:39+01:00</time>
      </trkpt>
      <trkpt lat="48.6878" lon="2.01798">
        <ele>103</ele>
        <time>2022-02-15T14:12:57+01:00</time>
      </trkpt>
      <trkpt lat="48.68763" lon="2.01823">
        <ele>104</ele>
        <time>2022-02-15T14:13:14+01:00</time>
      </trkpt>
      <trkpt lat="48.68743" lon="2.01841">
        <ele>104</ele>
        <time>2022-02-15T14:13:34+01:00</time>
      </trkpt>
      <trkpt lat="48.6875" lon="2.01873">
        <ele>105</ele>
        <time>2022-02-15T14:14:35+01:00</time>
      </trkpt>
      <trkpt lat="48.68762" lon="2.01903">
        <ele>102</ele>
        <time>2022-02-15T14:14:50+01:00</time>
      </trkpt>
      <trkpt lat="48.68778" lon="2.01929">
        <ele>94</ele>
        <time>2022-02-15T14:15:08+01:00</time>
      </trkpt>
      <trkpt lat="48.68785" lon="2.01963">
        <ele>93</ele>
        <time>2022-02-15T14:15:25+01:00</time>
      </trkpt>
      <trkpt lat="48.68802" lon="2.01987">
        <ele>108</ele>
        <time>2022-02-15T14:15:41+01:00</time>
      </trkpt>
      <trkpt lat="48.68813" lon="2.02018">
        <ele>112</ele>
        <time>2022-02-15T14:15:56+01:00</time>
      </trkpt>
      <trkpt lat="48.68823" lon="2.0205">
        <ele>115</ele>
        <time>2022-02-15T14:16:12+01:00</time>
      </trkpt>
      <trkpt lat="48.68838" lon="2.02075">
        <ele>116</ele>
        <time>2022-02-15T14:16:31+01:00</time>
      </trkpt>
      <trkpt lat="48.68858" lon="2.02059">
        <ele>115</ele>
        <time>2022-02-15T14:16:48+01:00</time>
      </trkpt>
      <trkpt lat="48.68879" lon="2.02049">
        <ele>114</ele>
        <time>2022-02-15T14:17:08+01:00</time>
      </trkpt>
      <trkpt lat="48.68902" lon="2.02049">
        <ele>114</ele>
        <time>2022-02-15T14:17:30+01:00</time>
      </trkpt>
      <trkpt lat="48.68923" lon="2.02065">
        <ele>113</ele>
        <time>2022-02-15T14:17:46+01:00</time>
      </trkpt>
      <trkpt lat="48.68944" lon="2.02076">
        <ele>113</ele>
        <time>2022-02-15T14:18:03+01:00</time>
      </trkpt>
      <trkpt lat="48.68967" lon="2.02078">
        <ele>115</ele>
        <time>2022-02-15T14:18:13+01:00</time>
      </trkpt>
      <trkpt lat="48.68989" lon="2.02088">
        <ele>116</ele>
        <time>2022-02-15T14:18:32+01:00</time>
      </trkpt>
      <trkpt lat="48.69012" lon="2.02094">
        <ele>118</ele>
        <time>2022-02-15T14:18:54+01:00</time>
      </trkpt>
      <trkpt lat="48.69033" lon="2.0211">
        <ele>116</ele>
        <time>2022-02-15T14:19:15+01:00</time>
      </trkpt>
      <trkpt lat="48.69054" lon="2.02127">
        <ele>115</ele>
        <time>2022-02-15T14:19:29+01:00</time>
      </trkpt>
      <trkpt lat="48.69073" lon="2.02145">
        <ele>117</ele>
        <time>2022-02-15T14:19:49+01:00</time>
      </trkpt>
      <trkpt lat="48.6909" lon="2.0217">
        <ele>119</ele>
        <time>2022-02-15T14:20:12+01:00</time>
      </trkpt>
      <trkpt lat="48.69098" lon="2.02202">
        <ele>123</ele>
        <time>2022-02-15T14:20:57+01:00</time>
      </trkpt>
      <trkpt lat="48.6912" lon="2.02216">
        <ele>125</ele>
        <time>2022-02-15T14:21:12+01:00</time>
      </trkpt>
      <trkpt lat="48.69142" lon="2.02223">
        <ele>127</ele>
        <time>2022-02-15T14:21:29+01:00</time>
      </trkpt>
      <trkpt lat="48.69162" lon="2.02242">
        <ele>126</ele>
        <time>2022-02-15T14:21:48+01:00</time>
      </trkpt>
      <trkpt lat="48.69181" lon="2.02262">
        <ele>122</ele>
        <time>2022-02-15T14:22:10+01:00</time>
      </trkpt>
      <trkpt lat="48.69205" lon="2.02269">
        <ele>121</ele>
        <time>2022-02-15T14:22:25+01:00</time>
      </trkpt>
      <trkpt lat="48.69226" lon="2.02285">
        <ele>124</ele>
        <time>2022-02-15T14:22:45+01:00</time>
      </trkpt>
      <trkpt lat="48.69244" lon="2.02307">
        <ele>124</ele>
        <time>2022-02-15T14:23:00+01:00</time>
      </trkpt>
      <trkpt lat="48.69259" lon="2.02332">
        <ele>123</ele>
        <time>2022-02-15T14:23:18+01:00</time>
      </trkpt>
      <trkpt lat="48.69259" lon="2.02366">
        <ele>122</ele>
        <time>2022-02-15T14:23:39+01:00</time>
      </trkpt>
      <trkpt lat="48.69278" lon="2.02388">
        <ele>121</ele>
        <time>2022-02-15T14:23:59+01:00</time>
      </trkpt>
      <trkpt lat="48.69301" lon="2.02396">
        <ele>115</ele>
        <time>2022-02-15T14:24:18+01:00</time>
      </trkpt>
      <trkpt lat="48.69312" lon="2.02426">
        <ele>113</ele>
        <time>2022-02-15T14:24:38+01:00</time>
      </trkpt>
      <trkpt lat="48.69323" lon="2.02456">
        <ele>109</ele>
        <time>2022-02-15T14:24:59+01:00</time>
      </trkpt>
      <trkpt lat="48.69321" lon="2.0249">
        <ele>110</ele>
        <time>2022-02-15T14:25:16+01:00</time>
      </trkpt>
      <trkpt lat="48.69304" lon="2.02513">
        <ele>112</ele>
        <time>2022-02-15T14:25:45+01:00</time>
      </trkpt>
      <trkpt lat="48.69307" lon="2.02547">
        <ele>112</ele>
        <time>2022-02-15T14:26:15+01:00</time>
      </trkpt>
      <trkpt lat="48.69314" lon="2.02581">
        <ele>119</ele>
        <time>2022-02-15T14:26:32+01:00</time>
      </trkpt>
      <trkpt lat="48.69293" lon="2.02592">
        <ele>115</ele>
        <time>2022-02-15T14:27:50+01:00</time>
      </trkpt>
      <trkpt lat="48.69271" lon="2.02607">
        <ele>121</ele>
        <time>2022-02-15T14:28:14+01:00</time>
      </trkpt>
      <trkpt lat="48.6925" lon="2.02621">
        <ele>129</ele>
        <time>2022-02-15T14:28:37+01:00</time>
      </trkpt>
      <trkpt lat="48.69229" lon="2.02632">
        <ele>130</ele>
        <time>2022-02-15T14:28:58+01:00</time>
      </trkpt>
      <trkpt lat="48.69209" lon="2.02649">
        <ele>137</ele>
        <time>2022-02-15T14:29:25+01:00</time>
      </trkpt>
      <trkpt lat="48.69186" lon="2.02655">
        <ele>142</ele>
        <time>2022-02-15T14:29:50+01:00</time>
      </trkpt>
      <trkpt lat="48.69163" lon="2.02658">
        <ele>148</ele>
        <time>2022-02-15T14:30:12+01:00</time>
      </trkpt>
      <trkpt lat="48.6914" lon="2.02665">
        <ele>150</ele>
        <time>2022-02-15T14:30:31+01:00</time>
      </trkpt>
      <trkpt lat="48.69116" lon="2.02664">
        <ele>148</ele>
        <time>2022-02-15T14:30:49+01:00</time>
      </trkpt>
      <trkpt lat="48.69096" lon="2.02679">
        <ele>148</ele>
        <time>2022-02-15T14:31:13+01:00</time>
      </trkpt>
      <trkpt lat="48.69075" lon="2.02695">
        <ele>150</ele>
        <time>2022-02-15T14:31:36+01:00</time>
      </trkpt>
      <trkpt lat="48.69059" lon="2.02721">
        <ele>152</ele>
        <time>2022-02-15T14:31:58+01:00</time>
      </trkpt>
      <trkpt lat="48.6904" lon="2.02741">
        <ele>157</ele>
        <time>2022-02-15T14:32:17+01:00</time>
      </trkpt>
      <trkpt lat="48.6902" lon="2.02757">
        <ele>158</ele>
        <time>2022-02-15T14:32:36+01:00</time>
      </trkpt>
      <trkpt lat="48.69034" lon="2.02729">
        <ele>160</ele>
        <time>2022-02-15T14:34:13+01:00</time>
      </trkpt>
      <trkpt lat="48.6906" lon="2.02728">
        <ele>161</ele>
        <time>2022-02-15T14:34:22+01:00</time>
      </trkpt>
      <trkpt lat="48.69038" lon="2.02738">
        <ele>159</ele>
        <time>2022-02-15T14:34:30+01:00</time>
      </trkpt>
      <trkpt lat="48.6902" lon="2.02762">
        <ele>157</ele>
        <time>2022-02-15T14:40:34+01:00</time>
      </trkpt>
      <trkpt lat="48.68998" lon="2.02775">
        <ele>155</ele>
        <time>2022-02-15T14:40:51+01:00</time>
      </trkpt>
      <trkpt lat="48.68976" lon="2.02786">
        <ele>156</ele>
        <time>2022-02-15T14:41:11+01:00</time>
      </trkpt>
      <trkpt lat="48.68953" lon="2.02789">
        <ele>155</ele>
        <time>2022-02-15T14:41:34+01:00</time>
      </trkpt>
      <trkpt lat="48.6893" lon="2.02798">
        <ele>158</ele>
        <time>2022-02-15T14:41:54+01:00</time>
      </trkpt>
      <trkpt lat="48.68907" lon="2.02797">
        <ele>158</ele>
        <time>2022-02-15T14:42:14+01:00</time>
      </trkpt>
      <trkpt lat="48.68884" lon="2.0279">
        <ele>157</ele>
        <time>2022-02-15T14:42:32+01:00</time>
      </trkpt>
      <trkpt lat="48.68861" lon="2.02793">
        <ele>162</ele>
        <time>2022-02-15T14:43:01+01:00</time>
      </trkpt>
      <trkpt lat="48.68839" lon="2.02806">
        <ele>162</ele>
        <time>2022-02-15T14:43:21+01:00</time>
      </trkpt>
      <trkpt lat="48.68821" lon="2.02826">
        <ele>165</ele>
        <time>2022-02-15T14:43:40+01:00</time>
      </trkpt>
      <trkpt lat="48.68801" lon="2.02841">
        <ele>165</ele>
        <time>2022-02-15T14:43:57+01:00</time>
      </trkpt>
      <trkpt lat="48.6878" lon="2.02857">
        <ele>168</ele>
        <time>2022-02-15T14:44:16+01:00</time>
      </trkpt>
      <trkpt lat="48.68758" lon="2.02869">
        <ele>167</ele>
        <time>2022-02-15T14:44:34+01:00</time>
      </trkpt>
      <trkpt lat="48.68736" lon="2.02876">
        <ele>166</ele>
        <time>2022-02-15T14:44:52+01:00</time>
      </trkpt>
      <trkpt lat="48.68713" lon="2.02881">
        <ele>170</ele>
        <time>2022-02-15T14:45:12+01:00</time>
      </trkpt>
      <trkpt lat="48.6869" lon="2.02885">
        <ele>166</ele>
        <time>2022-02-15T14:45:36+01:00</time>
      </trkpt>
      <trkpt lat="48.68673" lon="2.02909">
        <ele>169</ele>
        <time>2022-02-15T14:45:55+01:00</time>
      </trkpt>
      <trkpt lat="48.68662" lon="2.02939">
        <ele>172</ele>
        <time>2022-02-15T14:46:13+01:00</time>
      </trkpt>
      <trkpt lat="48.68648" lon="2.02967">
        <ele>174</ele>
        <time>2022-02-15T14:46:32+01:00</time>
      </trkpt>
      <trkpt lat="48.68634" lon="2.02995">
        <ele>175</ele>
        <time>2022-02-15T14:46:51+01:00</time>
      </trkpt>
      <trkpt lat="48.68621" lon="2.03024">
        <ele>174</ele>
        <time>2022-02-15T14:47:12+01:00</time>
      </trkpt>
      <trkpt lat="48.68607" lon="2.03052">
        <ele>175</ele>
        <time>2022-02-15T14:47:31+01:00</time>
      </trkpt>
      <trkpt lat="48.68594" lon="2.03081">
        <ele>175</ele>
        <time>2022-02-15T14:47:48+01:00</time>
      </trkpt>
      <trkpt lat="48.68617" lon="2.03083">
        <ele>171</ele>
        <time>2022-02-15T14:48:18+01:00</time>
      </trkpt>
      <trkpt lat="48.68639" lon="2.03074">
        <ele>172</ele>
        <time>2022-02-15T14:48:36+01:00</time>
      </trkpt>
      <trkpt lat="48.68663" lon="2.03076">
        <ele>172</ele>
        <time>2022-02-15T14:48:57+01:00</time>
      </trkpt>
      <trkpt lat="48.68684" lon="2.0309">
        <ele>174</ele>
        <time>2022-02-15T14:49:16+01:00</time>
      </trkpt>
      <trkpt lat="48.68706" lon="2.03104">
        <ele>171</ele>
        <time>2022-02-15T14:49:35+01:00</time>
      </trkpt>
      <trkpt lat="48.6873" lon="2.03108">
        <ele>170</ele>
        <time>2022-02-15T14:49:57+01:00</time>
      </trkpt>
      <trkpt lat="48.68753" lon="2.03112">
        <ele>166</ele>
        <time>2022-02-15T14:50:19+01:00</time>
      </trkpt>
      <trkpt lat="48.68776" lon="2.03118">
        <ele>163</ele>
        <time>2022-02-15T14:50:40+01:00</time>
      </trkpt>
      <trkpt lat="48.68799" lon="2.03122">
        <ele>164</ele>
        <time>2022-02-15T14:50:57+01:00</time>
      </trkpt>
      <trkpt lat="48.68822" lon="2.03127">
        <ele>163</ele>
        <time>2022-02-15T14:51:15+01:00</time>
      </trkpt>
      <trkpt lat="48.68846" lon="2.0313">
        <ele>162</ele>
        <time>2022-02-15T14:51:34+01:00</time>
      </trkpt>
      <trkpt lat="48.68868" lon="2.03132">
        <ele>162</ele>
        <time>2022-02-15T14:51:55+01:00</time>
      </trkpt>
      <trkpt lat="48.68891" lon="2.03139">
        <ele>162</ele>
        <time>2022-02-15T14:52:14+01:00</time>
      </trkpt>
      <trkpt lat="48.68907" lon="2.03163">
        <ele>164</ele>
        <time>2022-02-15T14:52:42+01:00</time>
      </trkpt>
      <trkpt lat="48.68901" lon="2.03197">
        <ele>162</ele>
        <time>2022-02-15T14:53:03+01:00</time>
      </trkpt>
      <trkpt lat="48.6891" lon="2.0323">
        <ele>161</ele>
        <time>2022-02-15T14:53:26+01:00</time>
      </trkpt>
      <trkpt lat="48.68927" lon="2.03254">
        <ele>158</ele>
        <time>2022-02-15T14:53:54+01:00</time>
      </trkpt>
      <trkpt lat="48.68941" lon="2.03281">
        <ele>156</ele>
        <time>2022-02-15T14:54:16+01:00</time>
      </trkpt>
      <trkpt lat="48.68962" lon="2.03291">
        <ele>155</ele>
        <time>2022-02-15T14:54:36+01:00</time>
      </trkpt>
      <trkpt lat="48.68985" lon="2.03299">
        <ele>153</ele>
        <time>2022-02-15T14:54:55+01:00</time>
      </trkpt>
      <trkpt lat="48.69007" lon="2.0331">
        <ele>155</ele>
        <time>2022-02-15T14:55:12+01:00</time>
      </trkpt>
      <trkpt lat="48.6903" lon="2.03317">
        <ele>155</ele>
        <time>2022-02-15T14:55:31+01:00</time>
      </trkpt>
      <trkpt lat="48.69052" lon="2.03329">
        <ele>154</ele>
        <time>2022-02-15T14:55:48+01:00</time>
      </trkpt>
      <trkpt lat="48.69074" lon="2.03335">
        <ele>152</ele>
        <time>2022-02-15T14:56:06+01:00</time>
      </trkpt>
      <trkpt lat="48.69096" lon="2.03345">
        <ele>152</ele>
        <time>2022-02-15T14:56:26+01:00</time>
      </trkpt>
      <trkpt lat="48.69119" lon="2.03354">
        <ele>150</ele>
        <time>2022-02-15T14:56:45+01:00</time>
      </trkpt>
      <trkpt lat="48.69123" lon="2.03388">
        <ele>149</ele>
        <time>2022-02-15T15:01:31+01:00</time>
      </trkpt>
      <trkpt lat="48.69119" lon="2.03423">
        <ele>147</ele>
        <time>2022-02-15T15:01:50+01:00</time>
      </trkpt>
      <trkpt lat="48.69132" lon="2.03452">
        <ele>149</ele>
        <time>2022-02-15T15:02:08+01:00</time>
      </trkpt>
      <trkpt lat="48.69148" lon="2.03476">
        <ele>147</ele>
        <time>2022-02-15T15:02:26+01:00</time>
      </trkpt>
      <trkpt lat="48.69164" lon="2.035">
        <ele>148</ele>
        <time>2022-02-15T15:02:43+01:00</time>
      </trkpt>
      <trkpt lat="48.69185" lon="2.03516">
        <ele>144</ele>
        <time>2022-02-15T15:03:05+01:00</time>
      </trkpt>
      <trkpt lat="48.69207" lon="2.03525">
        <ele>144</ele>
        <time>2022-02-15T15:03:20+01:00</time>
      </trkpt>
      <trkpt lat="48.69228" lon="2.03512">
        <ele>158</ele>
        <time>2022-02-15T15:03:39+01:00</time>
      </trkpt>
      <trkpt lat="48.69247" lon="2.03547">
        <ele>161</ele>
        <time>2022-02-15T15:04:52+01:00</time>
      </trkpt>
      <trkpt lat="48.69275" lon="2.03568">
        <ele>156</ele>
        <time>2022-02-15T15:05:12+01:00</time>
      </trkpt>
      <trkpt lat="48.69301" lon="2.03593">
        <ele>148</ele>
        <time>2022-02-15T15:05:42+01:00</time>
      </trkpt>
      <trkpt lat="48.69327" lon="2.03607">
        <ele>144</ele>
        <time>2022-02-15T15:06:03+01:00</time>
      </trkpt>
      <trkpt lat="48.69354" lon="2.03631">
        <ele>141</ele>
        <time>2022-02-15T15:06:30+01:00</time>
      </trkpt>
      <trkpt lat="48.6938" lon="2.03644">
        <ele>140</ele>
        <time>2022-02-15T15:06:51+01:00</time>
      </trkpt>
      <trkpt lat="48.69407" lon="2.03661">
        <ele>141</ele>
        <time>2022-02-15T15:07:13+01:00</time>
      </trkpt>
      <trkpt lat="48.69435" lon="2.03679">
        <ele>143</ele>
        <time>2022-02-15T15:07:36+01:00</time>
      </trkpt>
      <trkpt lat="48.69457" lon="2.03705">
        <ele>148</ele>
        <time>2022-02-15T15:07:55+01:00</time>
      </trkpt>
      <trkpt lat="48.69463" lon="2.03748">
        <ele>151</ele>
        <time>2022-02-15T15:08:23+01:00</time>
      </trkpt>
      <trkpt lat="48.6945" lon="2.03783">
        <ele>151</ele>
        <time>2022-02-15T15:08:44+01:00</time>
      </trkpt>
      <trkpt lat="48.69446" lon="2.03822">
        <ele>150</ele>
        <time>2022-02-15T15:09:05+01:00</time>
      </trkpt>
      <trkpt lat="48.69434" lon="2.03858">
        <ele>149</ele>
        <time>2022-02-15T15:09:25+01:00</time>
      </trkpt>
      <trkpt lat="48.69425" lon="2.03899">
        <ele>149</ele>
        <time>2022-02-15T15:09:46+01:00</time>
      </trkpt>
      <trkpt lat="48.69421" lon="2.03938">
        <ele>150</ele>
        <time>2022-02-15T15:10:07+01:00</time>
      </trkpt>
      <trkpt lat="48.69425" lon="2.03981">
        <ele>151</ele>
        <time>2022-02-15T15:10:27+01:00</time>
      </trkpt>
      <trkpt lat="48.6943" lon="2.04016">
        <ele>153</ele>
        <time>2022-02-15T15:10:47+01:00</time>
      </trkpt>
      <trkpt lat="48.69431" lon="2.04053">
        <ele>150</ele>
        <time>2022-02-15T15:11:12+01:00</time>
      </trkpt>
      <trkpt lat="48.69436" lon="2.04089">
        <ele>154</ele>
        <time>2022-02-15T15:11:25+01:00</time>
      </trkpt>
      <trkpt lat="48.69437" lon="2.04124">
        <ele>159</ele>
        <time>2022-02-15T15:11:42+01:00</time>
      </trkpt>
      <trkpt lat="48.69441" lon="2.04169">
        <ele>165</ele>
        <time>2022-02-15T15:12:10+01:00</time>
      </trkpt>
      <trkpt lat="48.69442" lon="2.04203">
        <ele>166</ele>
        <time>2022-02-15T15:12:28+01:00</time>
      </trkpt>
      <trkpt lat="48.6944" lon="2.04242">
        <ele>165</ele>
        <time>2022-02-15T15:12:48+01:00</time>
      </trkpt>
      <trkpt lat="48.69438" lon="2.04281">
        <ele>165</ele>
        <time>2022-02-15T15:13:10+01:00</time>
      </trkpt>
      <trkpt lat="48.69438" lon="2.04322">
        <ele>164</ele>
        <time>2022-02-15T15:13:32+01:00</time>
      </trkpt>
      <trkpt lat="48.69436" lon="2.04363">
        <ele>162</ele>
        <time>2022-02-15T15:13:52+01:00</time>
      </trkpt>
      <trkpt lat="48.69441" lon="2.04403">
        <ele>161</ele>
        <time>2022-02-15T15:14:14+01:00</time>
      </trkpt>
      <trkpt lat="48.6944" lon="2.04441">
        <ele>159</ele>
        <time>2022-02-15T15:14:36+01:00</time>
      </trkpt>
      <trkpt lat="48.69439" lon="2.0448">
        <ele>158</ele>
        <time>2022-02-15T15:14:58+01:00</time>
      </trkpt>
      <trkpt lat="48.69436" lon="2.0452">
        <ele>158</ele>
        <time>2022-02-15T15:15:20+01:00</time>
      </trkpt>
      <trkpt lat="48.69436" lon="2.0456">
        <ele>159</ele>
        <time>2022-02-15T15:15:43+01:00</time>
      </trkpt>
      <trkpt lat="48.69429" lon="2.04598">
        <ele>160</ele>
        <time>2022-02-15T15:16:04+01:00</time>
      </trkpt>
      <trkpt lat="48.69415" lon="2.04632">
        <ele>160</ele>
        <time>2022-02-15T15:16:28+01:00</time>
      </trkpt>
      <trkpt lat="48.69407" lon="2.04672">
        <ele>160</ele>
        <time>2022-02-15T15:16:49+01:00</time>
      </trkpt>
      <trkpt lat="48.69399" lon="2.04709">
        <ele>159</ele>
        <time>2022-02-15T15:17:10+01:00</time>
      </trkpt>
      <trkpt lat="48.69403" lon="2.04749">
        <ele>160</ele>
        <time>2022-02-15T15:17:30+01:00</time>
      </trkpt>
      <trkpt lat="48.69398" lon="2.04787">
        <ele>158</ele>
        <time>2022-02-15T15:17:53+01:00</time>
      </trkpt>
      <trkpt lat="48.69396" lon="2.04829">
        <ele>157</ele>
        <time>2022-02-15T15:18:14+01:00</time>
      </trkpt>
      <trkpt lat="48.69395" lon="2.04871">
        <ele>157</ele>
        <time>2022-02-15T15:18:36+01:00</time>
      </trkpt>
      <trkpt lat="48.69398" lon="2.04909">
        <ele>156</ele>
        <time>2022-02-15T15:19:01+01:00</time>
      </trkpt>
      <trkpt lat="48.69406" lon="2.0495">
        <ele>156</ele>
        <time>2022-02-15T15:19:20+01:00</time>
      </trkpt>
      <trkpt lat="48.69428" lon="2.04959">
        <ele>157</ele>
        <time>2022-02-15T15:19:46+01:00</time>
      </trkpt>
      <trkpt lat="48.69451" lon="2.04958">
        <ele>156</ele>
        <time>2022-02-15T15:20:06+01:00</time>
      </trkpt>
      <trkpt lat="48.6948" lon="2.04951">
        <ele>157</ele>
        <time>2022-02-15T15:20:25+01:00</time>
      </trkpt>
      <trkpt lat="48.69507" lon="2.04943">
        <ele>160</ele>
        <time>2022-02-15T15:20:46+01:00</time>
      </trkpt>
      <trkpt lat="48.69531" lon="2.0494">
        <ele>163</ele>
        <time>2022-02-15T15:20:57+01:00</time>
      </trkpt>
      <trkpt lat="48.69554" lon="2.04936">
        <ele>176</ele>
        <time>2022-02-15T15:21:19+01:00</time>
      </trkpt>
      <trkpt lat="48.69577" lon="2.04929">
        <ele>175</ele>
        <time>2022-02-15T15:21:41+01:00</time>
      </trkpt>
      <trkpt lat="48.696" lon="2.04925">
        <ele>173</ele>
        <time>2022-02-15T15:21:58+01:00</time>
      </trkpt>
      <trkpt lat="48.69623" lon="2.04914">
        <ele>170</ele>
        <time>2022-02-15T15:22:17+01:00</time>
      </trkpt>
      <trkpt lat="48.69647" lon="2.04917">
        <ele>169</ele>
        <time>2022-02-15T15:22:32+01:00</time>
      </trkpt>
      <trkpt lat="48.6967" lon="2.04919">
        <ele>165</ele>
        <time>2022-02-15T15:22:53+01:00</time>
      </trkpt>
      <trkpt lat="48.69695" lon="2.04923">
        <ele>159</ele>
        <time>2022-02-15T15:23:15+01:00</time>
      </trkpt>
      <trkpt lat="48.69718" lon="2.04921">
        <ele>162</ele>
        <time>2022-02-15T15:23:29+01:00</time>
      </trkpt>
      <trkpt lat="48.69742" lon="2.04921">
        <ele>163</ele>
        <time>2022-02-15T15:23:48+01:00</time>
      </trkpt>
      <trkpt lat="48.69766" lon="2.04921">
        <ele>162</ele>
        <time>2022-02-15T15:24:10+01:00</time>
      </trkpt>
      <trkpt lat="48.69785" lon="2.04897">
        <ele>165</ele>
        <time>2022-02-15T15:24:34+01:00</time>
      </trkpt>
      <trkpt lat="48.69792" lon="2.04857">
        <ele>166</ele>
        <time>2022-02-15T15:24:55+01:00</time>
      </trkpt>
      <trkpt lat="48.69793" lon="2.04818">
        <ele>164</ele>
        <time>2022-02-15T15:25:14+01:00</time>
      </trkpt>
      <trkpt lat="48.69793" lon="2.04778">
        <ele>162</ele>
        <time>2022-02-15T15:25:35+01:00</time>
      </trkpt>
      <trkpt lat="48.69785" lon="2.04738">
        <ele>161</ele>
        <time>2022-02-15T15:25:58+01:00</time>
      </trkpt>
      <trkpt lat="48.69779" lon="2.04701">
        <ele>160</ele>
        <time>2022-02-15T15:30:13+01:00</time>
      </trkpt>
      <trkpt lat="48.69781" lon="2.04664">
        <ele>160</ele>
        <time>2022-02-15T15:30:34+01:00</time>
      </trkpt>
      <trkpt lat="48.69783" lon="2.04624">
        <ele>161</ele>
        <time>2022-02-15T15:30:54+01:00</time>
      </trkpt>
      <trkpt lat="48.69794" lon="2.04588">
        <ele>156</ele>
        <time>2022-02-15T15:31:19+01:00</time>
      </trkpt>
      <trkpt lat="48.69819" lon="2.04567">
        <ele>149</ele>
        <time>2022-02-15T15:31:49+01:00</time>
      </trkpt>
      <trkpt lat="48.69828" lon="2.0453">
        <ele>145</ele>
        <time>2022-02-15T15:32:10+01:00</time>
      </trkpt>
      <trkpt lat="48.69842" lon="2.04503">
        <ele>147</ele>
        <time>2022-02-15T15:32:31+01:00</time>
      </trkpt>
      <trkpt lat="48.69856" lon="2.04469">
        <ele>149</ele>
        <time>2022-02-15T15:32:54+01:00</time>
      </trkpt>
      <trkpt lat="48.6987" lon="2.0444">
        <ele>153</ele>
        <time>2022-02-15T15:33:08+01:00</time>
      </trkpt>
      <trkpt lat="48.69884" lon="2.04412">
        <ele>155</ele>
        <time>2022-02-15T15:33:24+01:00</time>
      </trkpt>
      <trkpt lat="48.69888" lon="2.04378">
        <ele>153</ele>
        <time>2022-02-15T15:33:39+01:00</time>
      </trkpt>
      <trkpt lat="48.6991" lon="2.0436">
        <ele>165</ele>
        <time>2022-02-15T15:34:16+01:00</time>
      </trkpt>
      <trkpt lat="48.69939" lon="2.04363">
        <ele>168</ele>
        <time>2022-02-15T15:34:33+01:00</time>
      </trkpt>
      <trkpt lat="48.6996" lon="2.04379">
        <ele>161</ele>
        <time>2022-02-15T15:34:48+01:00</time>
      </trkpt>
      <trkpt lat="48.69983" lon="2.04373">
        <ele>153</ele>
        <time>2022-02-15T15:35:14+01:00</time>
      </trkpt>
      <trkpt lat="48.69996" lon="2.04344">
        <ele>144</ele>
        <time>2022-02-15T15:35:38+01:00</time>
      </trkpt>
      <trkpt lat="48.70009" lon="2.04309">
        <ele>139</ele>
        <time>2022-02-15T15:35:58+01:00</time>
      </trkpt>
      <trkpt lat="48.70016" lon="2.04273">
        <ele>134</ele>
        <time>2022-02-15T15:36:20+01:00</time>
      </trkpt>
      <trkpt lat="48.70016" lon="2.04232">
        <ele>129</ele>
        <time>2022-02-15T15:36:42+01:00</time>
      </trkpt>
      <trkpt lat="48.70014" lon="2.04188">
        <ele>128</ele>
        <time>2022-02-15T15:37:03+01:00</time>
      </trkpt>
      <trkpt lat="48.7001" lon="2.04148">
        <ele>126</ele>
        <time>2022-02-15T15:37:25+01:00</time>
      </trkpt>
      <trkpt lat="48.70001" lon="2.0411">
        <ele>125</ele>
        <time>2022-02-15T15:37:45+01:00</time>
      </trkpt>
      <trkpt lat="48.70008" lon="2.04073">
        <ele>124</ele>
        <time>2022-02-15T15:38:10+01:00</time>
      </trkpt>
      <trkpt lat="48.70034" lon="2.0407">
        <ele>121</ele>
        <time>2022-02-15T15:38:37+01:00</time>
      </trkpt>
      <trkpt lat="48.70059" lon="2.04078">
        <ele>117</ele>
        <time>2022-02-15T15:39:00+01:00</time>
      </trkpt>
      <trkpt lat="48.70084" lon="2.04084">
        <ele>110</ele>
        <time>2022-02-15T15:39:23+01:00</time>
      </trkpt>
      <trkpt lat="48.70108" lon="2.04082">
        <ele>107</ele>
        <time>2022-02-15T15:39:38+01:00</time>
      </trkpt>
      <trkpt lat="48.70131" lon="2.04076">
        <ele>102</ele>
        <time>2022-02-15T15:39:57+01:00</time>
      </trkpt>
      <trkpt lat="48.70154" lon="2.04072">
        <ele>99</ele>
        <time>2022-02-15T15:40:14+01:00</time>
      </trkpt>
      <trkpt lat="48.70178" lon="2.04065">
        <ele>98</ele>
        <time>2022-02-15T15:40:34+01:00</time>
      </trkpt>
      <trkpt lat="48.70201" lon="2.04059">
        <ele>97</ele>
        <time>2022-02-15T15:40:50+01:00</time>
      </trkpt>
      <trkpt lat="48.70224" lon="2.04054">
        <ele>94</ele>
        <time>2022-02-15T15:41:06+01:00</time>
      </trkpt>
      <trkpt lat="48.70246" lon="2.04047">
        <ele>92</ele>
        <time>2022-02-15T15:41:22+01:00</time>
      </trkpt>
      <trkpt lat="48.70269" lon="2.04037">
        <ele>89</ele>
        <time>2022-02-15T15:41:40+01:00</time>
      </trkpt>
      <trkpt lat="48.7029" lon="2.04022">
        <ele>89</ele>
        <time>2022-02-15T15:41:59+01:00</time>
      </trkpt>
      <trkpt lat="48.70311" lon="2.04009">
        <ele>87</ele>
        <time>2022-02-15T15:42:17+01:00</time>
      </trkpt>
      <trkpt lat="48.70336" lon="2.03985">
        <ele>86</ele>
        <time>2022-02-15T15:42:41+01:00</time>
      </trkpt>
      <trkpt lat="48.70355" lon="2.03964">
        <ele>84</ele>
        <time>2022-02-15T15:42:59+01:00</time>
      </trkpt>
      <trkpt lat="48.70376" lon="2.0395">
        <ele>82</ele>
        <time>2022-02-15T15:43:17+01:00</time>
      </trkpt>
      <trkpt lat="48.704" lon="2.03943">
        <ele>78</ele>
        <time>2022-02-15T15:43:37+01:00</time>
      </trkpt>
      <trkpt lat="48.70429" lon="2.03937">
        <ele>75</ele>
        <time>2022-02-15T15:44:02+01:00</time>
      </trkpt>
      <trkpt lat="48.70447" lon="2.03915">
        <ele>72</ele>
        <time>2022-02-15T15:45:43+01:00</time>
      </trkpt>
      <trkpt lat="48.70452" lon="2.03881">
        <ele>71</ele>
        <time>2022-02-15T15:46:02+01:00</time>
      </trkpt>
      <trkpt lat="48.70454" lon="2.03847">
        <ele>73</ele>
        <time>2022-02-15T15:46:19+01:00</time>
      </trkpt>
      <trkpt lat="48.70453" lon="2.03812">
        <ele>71</ele>
        <time>2022-02-15T15:46:40+01:00</time>
      </trkpt>
      <trkpt lat="48.70466" lon="2.03784">
        <ele>70</ele>
        <time>2022-02-15T15:46:58+01:00</time>
      </trkpt>
      <trkpt lat="48.7048" lon="2.03745">
        <ele>73</ele>
        <time>2022-02-15T15:47:04+01:00</time>
      </trkpt>
      <trkpt lat="48.70495" lon="2.03771">
        <ele>80</ele>
        <time>2022-02-15T15:47:21+01:00</time>
      </trkpt>
      <trkpt lat="48.705" lon="2.03805">
        <ele>80</ele>
        <time>2022-02-15T15:47:41+01:00</time>
      </trkpt>
      <trkpt lat="48.70513" lon="2.03838">
        <ele>72</ele>
        <time>2022-02-15T15:48:02+01:00</time>
      </trkpt>
      <trkpt lat="48.7053" lon="2.0386">
        <ele>68</ele>
        <time>2022-02-15T15:48:17+01:00</time>
      </trkpt>
      <trkpt lat="48.70537" lon="2.03894">
        <ele>60</ele>
        <time>2022-02-15T15:48:38+01:00</time>
      </trkpt>
      <trkpt lat="48.70547" lon="2.03925">
        <ele>57</ele>
        <time>2022-02-15T15:48:57+01:00</time>
      </trkpt>
    </trkseg>
  </trk>
</gpx>